<?xml version="1.0" encoding="UTF-8" standalone="no" ?>
<gpx xmlns="http://www.topografix.com/GPX/1/1" xmlns:xsi="http://www.w3.org/2001/XMLSchema-instance" xsi:schemaLocation="http://www.topografix.com/GPX/1/1 http://www.topografix.com/GPX/1/1/gpx.xsd" version="1.1" creator="VisuGPX - https://www.visugpx.com">
  <metadata>
    <name>2023-05-25-46-GIGOUZAC BROUELLES</name>
    <desc><![CDATA[Boucle de 22 km pour un dénivelé positif d'environ 450m, 3 belles côtes sous vos pieds, un parcours principalement en sous bois et de jolies hameaux à traverser ]]></desc>
  </metadata>
  <trk>
    <name><![CDATA[GIGOUZAC BROZELLES ROBERT 17 05 2023]]></name>
    <extensions>
      <line xmlns="http://www.topografix.com/GPX/gpx_style/0/2">
        <color>0000FF</color>
        <width>4</width>
      </line>
    </extensions>
    <trkseg>
      <trkpt lat="44.58202" lon="1.43347">
        <ele>235.18</ele>
        <time>2023-05-17T08:03:49Z</time>
      </trkpt>
      <trkpt lat="44.58213" lon="1.43341">
        <ele>234.7</ele>
        <time>2023-05-17T08:04:41Z</time>
      </trkpt>
      <trkpt lat="44.58229" lon="1.43349">
        <ele>234.7</ele>
        <time>2023-05-17T08:04:59Z</time>
      </trkpt>
      <trkpt lat="44.58228" lon="1.43338">
        <ele>234.7</ele>
        <time>2023-05-17T08:05:08Z</time>
      </trkpt>
      <trkpt lat="44.58223" lon="1.43328">
        <ele>234.7</ele>
        <time>2023-05-17T08:05:17Z</time>
      </trkpt>
      <trkpt lat="44.58214" lon="1.43321">
        <ele>234.7</ele>
        <time>2023-05-17T08:05:25Z</time>
      </trkpt>
      <trkpt lat="44.58208" lon="1.43309">
        <ele>234.7</ele>
        <time>2023-05-17T08:05:34Z</time>
      </trkpt>
      <trkpt lat="44.58205" lon="1.43295">
        <ele>234.22</ele>
        <time>2023-05-17T08:05:42Z</time>
      </trkpt>
      <trkpt lat="44.58199" lon="1.43283">
        <ele>234.22</ele>
        <time>2023-05-17T08:05:51Z</time>
      </trkpt>
      <trkpt lat="44.58183" lon="1.43259">
        <ele>233.74</ele>
        <time>2023-05-17T08:06:07Z</time>
      </trkpt>
      <trkpt lat="44.58163" lon="1.43235">
        <ele>232.78</ele>
        <time>2023-05-17T08:06:25Z</time>
      </trkpt>
      <trkpt lat="44.58149" lon="1.43212">
        <ele>232.78</ele>
        <time>2023-05-17T08:06:41Z</time>
      </trkpt>
      <trkpt lat="44.58139" lon="1.43187">
        <ele>232.78</ele>
        <time>2023-05-17T08:06:54Z</time>
      </trkpt>
      <trkpt lat="44.58121" lon="1.4315">
        <ele>232.3</ele>
        <time>2023-05-17T08:07:14Z</time>
      </trkpt>
      <trkpt lat="44.58103" lon="1.43119">
        <ele>231.81</ele>
        <time>2023-05-17T08:07:34Z</time>
      </trkpt>
      <trkpt lat="44.58094" lon="1.43091">
        <ele>230.37</ele>
        <time>2023-05-17T08:07:48Z</time>
      </trkpt>
      <trkpt lat="44.58063" lon="1.43029">
        <ele>230.37</ele>
        <time>2023-05-17T08:08:23Z</time>
      </trkpt>
      <trkpt lat="44.5803" lon="1.42992">
        <ele>230.37</ele>
        <time>2023-05-17T08:08:51Z</time>
      </trkpt>
      <trkpt lat="44.58012" lon="1.42975">
        <ele>229.89</ele>
        <time>2023-05-17T08:09:05Z</time>
      </trkpt>
      <trkpt lat="44.57996" lon="1.42957">
        <ele>229.89</ele>
        <time>2023-05-17T08:09:19Z</time>
      </trkpt>
      <trkpt lat="44.57979" lon="1.42941">
        <ele>229.41</ele>
        <time>2023-05-17T08:09:31Z</time>
      </trkpt>
      <trkpt lat="44.57955" lon="1.42913">
        <ele>228.45</ele>
        <time>2023-05-17T08:09:52Z</time>
      </trkpt>
      <trkpt lat="44.57936" lon="1.42896">
        <ele>227.97</ele>
        <time>2023-05-17T08:10:06Z</time>
      </trkpt>
      <trkpt lat="44.57916" lon="1.42883">
        <ele>227.97</ele>
        <time>2023-05-17T08:10:20Z</time>
      </trkpt>
      <trkpt lat="44.57879" lon="1.4285">
        <ele>227.01</ele>
        <time>2023-05-17T08:10:49Z</time>
      </trkpt>
      <trkpt lat="44.57855" lon="1.42822">
        <ele>227.01</ele>
        <time>2023-05-17T08:11:11Z</time>
      </trkpt>
      <trkpt lat="44.57806" lon="1.42781">
        <ele>227.01</ele>
        <time>2023-05-17T08:11:49Z</time>
      </trkpt>
      <trkpt lat="44.5776" lon="1.42719">
        <ele>226.05</ele>
        <time>2023-05-17T08:12:29Z</time>
      </trkpt>
      <trkpt lat="44.57753" lon="1.42677">
        <ele>226.05</ele>
        <time>2023-05-17T08:12:49Z</time>
      </trkpt>
      <trkpt lat="44.57743" lon="1.42651">
        <ele>225.57</ele>
        <time>2023-05-17T08:13:02Z</time>
      </trkpt>
      <trkpt lat="44.57736" lon="1.42642">
        <ele>225.57</ele>
        <time>2023-05-17T08:13:08Z</time>
      </trkpt>
      <trkpt lat="44.57712" lon="1.42596">
        <ele>224.61</ele>
        <time>2023-05-17T08:13:35Z</time>
      </trkpt>
      <trkpt lat="44.57685" lon="1.42551">
        <ele>224.61</ele>
        <time>2023-05-17T08:14:04Z</time>
      </trkpt>
      <trkpt lat="44.57668" lon="1.42514">
        <ele>224.12</ele>
        <time>2023-05-17T08:14:25Z</time>
      </trkpt>
      <trkpt lat="44.5766" lon="1.4249">
        <ele>224.12</ele>
        <time>2023-05-17T08:14:37Z</time>
      </trkpt>
      <trkpt lat="44.57649" lon="1.42466">
        <ele>224.12</ele>
        <time>2023-05-17T08:14:51Z</time>
      </trkpt>
      <trkpt lat="44.57641" lon="1.42456">
        <ele>223.64</ele>
        <time>2023-05-17T08:14:58Z</time>
      </trkpt>
      <trkpt lat="44.57632" lon="1.42449">
        <ele>223.64</ele>
        <time>2023-05-17T08:15:05Z</time>
      </trkpt>
      <trkpt lat="44.57625" lon="1.42441">
        <ele>223.64</ele>
        <time>2023-05-17T08:15:12Z</time>
      </trkpt>
      <trkpt lat="44.57605" lon="1.42411">
        <ele>223.16</ele>
        <time>2023-05-17T08:15:34Z</time>
      </trkpt>
      <trkpt lat="44.57592" lon="1.42388">
        <ele>223.16</ele>
        <time>2023-05-17T08:15:51Z</time>
      </trkpt>
      <trkpt lat="44.57576" lon="1.42367">
        <ele>223.16</ele>
        <time>2023-05-17T08:16:06Z</time>
      </trkpt>
      <trkpt lat="44.57569" lon="1.42353">
        <ele>223.16</ele>
        <time>2023-05-17T08:16:18Z</time>
      </trkpt>
      <trkpt lat="44.57554" lon="1.42333">
        <ele>222.68</ele>
        <time>2023-05-17T08:16:59Z</time>
      </trkpt>
      <trkpt lat="44.57543" lon="1.42312">
        <ele>222.68</ele>
        <time>2023-05-17T08:17:14Z</time>
      </trkpt>
      <trkpt lat="44.57511" lon="1.42261">
        <ele>222.2</ele>
        <time>2023-05-17T08:17:48Z</time>
      </trkpt>
      <trkpt lat="44.57506" lon="1.42248">
        <ele>222.2</ele>
        <time>2023-05-17T08:17:55Z</time>
      </trkpt>
      <trkpt lat="44.57494" lon="1.42227">
        <ele>221.72</ele>
        <time>2023-05-17T08:18:08Z</time>
      </trkpt>
      <trkpt lat="44.57484" lon="1.42204">
        <ele>221.24</ele>
        <time>2023-05-17T08:18:23Z</time>
      </trkpt>
      <trkpt lat="44.57477" lon="1.42193">
        <ele>221.24</ele>
        <time>2023-05-17T08:18:30Z</time>
      </trkpt>
      <trkpt lat="44.57456" lon="1.42146">
        <ele>221.24</ele>
        <time>2023-05-17T08:18:58Z</time>
      </trkpt>
      <trkpt lat="44.57434" lon="1.42103">
        <ele>220.76</ele>
        <time>2023-05-17T08:19:25Z</time>
      </trkpt>
      <trkpt lat="44.57408" lon="1.42066">
        <ele>220.28</ele>
        <time>2023-05-17T08:19:56Z</time>
      </trkpt>
      <trkpt lat="44.57386" lon="1.42038">
        <ele>220.28</ele>
        <time>2023-05-17T08:20:17Z</time>
      </trkpt>
      <trkpt lat="44.57369" lon="1.42025">
        <ele>219.8</ele>
        <time>2023-05-17T08:20:32Z</time>
      </trkpt>
      <trkpt lat="44.57361" lon="1.42017">
        <ele>219.8</ele>
        <time>2023-05-17T08:20:40Z</time>
      </trkpt>
      <trkpt lat="44.57332" lon="1.42001">
        <ele>219.32</ele>
        <time>2023-05-17T08:21:04Z</time>
      </trkpt>
      <trkpt lat="44.5731" lon="1.4198">
        <ele>219.32</ele>
        <time>2023-05-17T08:21:29Z</time>
      </trkpt>
      <trkpt lat="44.57291" lon="1.41967">
        <ele>219.32</ele>
        <time>2023-05-17T08:21:45Z</time>
      </trkpt>
      <trkpt lat="44.57254" lon="1.41949">
        <ele>218.84</ele>
        <time>2023-05-17T08:22:13Z</time>
      </trkpt>
      <trkpt lat="44.57216" lon="1.41928">
        <ele>219.8</ele>
        <time>2023-05-17T08:22:44Z</time>
      </trkpt>
      <trkpt lat="44.57177" lon="1.4191">
        <ele>220.76</ele>
        <time>2023-05-17T08:23:16Z</time>
      </trkpt>
      <trkpt lat="44.57168" lon="1.41903">
        <ele>220.76</ele>
        <time>2023-05-17T08:23:23Z</time>
      </trkpt>
      <trkpt lat="44.57128" lon="1.41892">
        <ele>221.24</ele>
        <time>2023-05-17T08:23:52Z</time>
      </trkpt>
      <trkpt lat="44.57085" lon="1.41887">
        <ele>222.68</ele>
        <time>2023-05-17T08:24:23Z</time>
      </trkpt>
      <trkpt lat="44.57062" lon="1.4189">
        <ele>222.68</ele>
        <time>2023-05-17T08:24:41Z</time>
      </trkpt>
      <trkpt lat="44.57025" lon="1.41909">
        <ele>221.24</ele>
        <time>2023-05-17T08:25:13Z</time>
      </trkpt>
      <trkpt lat="44.56998" lon="1.41901">
        <ele>220.76</ele>
        <time>2023-05-17T08:25:29Z</time>
      </trkpt>
      <trkpt lat="44.56988" lon="1.41895">
        <ele>220.28</ele>
        <time>2023-05-17T08:25:38Z</time>
      </trkpt>
      <trkpt lat="44.5699" lon="1.41882">
        <ele>220.28</ele>
        <time>2023-05-17T08:25:47Z</time>
      </trkpt>
      <trkpt lat="44.57013" lon="1.4185">
        <ele>218.84</ele>
        <time>2023-05-17T08:26:11Z</time>
      </trkpt>
      <trkpt lat="44.57019" lon="1.41835">
        <ele>218.36</ele>
        <time>2023-05-17T08:26:20Z</time>
      </trkpt>
      <trkpt lat="44.57022" lon="1.41819">
        <ele>217.88</ele>
        <time>2023-05-17T08:26:27Z</time>
      </trkpt>
      <trkpt lat="44.57021" lon="1.41786">
        <ele>216.91</ele>
        <time>2023-05-17T08:26:41Z</time>
      </trkpt>
      <trkpt lat="44.57015" lon="1.41759">
        <ele>216.91</ele>
        <time>2023-05-17T08:26:54Z</time>
      </trkpt>
      <trkpt lat="44.5701" lon="1.41745">
        <ele>216.91</ele>
        <time>2023-05-17T08:27:01Z</time>
      </trkpt>
      <trkpt lat="44.56983" lon="1.41698">
        <ele>215.95</ele>
        <time>2023-05-17T08:27:30Z</time>
      </trkpt>
      <trkpt lat="44.56917" lon="1.41608">
        <ele>214.51</ele>
        <time>2023-05-17T08:28:34Z</time>
      </trkpt>
      <trkpt lat="44.56898" lon="1.4158">
        <ele>213.55</ele>
        <time>2023-05-17T08:28:50Z</time>
      </trkpt>
      <trkpt lat="44.56868" lon="1.41526">
        <ele>212.59</ele>
        <time>2023-05-17T08:29:24Z</time>
      </trkpt>
      <trkpt lat="44.56862" lon="1.41509">
        <ele>212.59</ele>
        <time>2023-05-17T08:29:33Z</time>
      </trkpt>
      <trkpt lat="44.56838" lon="1.41464">
        <ele>212.11</ele>
        <time>2023-05-17T08:30:04Z</time>
      </trkpt>
      <trkpt lat="44.56822" lon="1.41429">
        <ele>213.07</ele>
        <time>2023-05-17T08:30:22Z</time>
      </trkpt>
      <trkpt lat="44.56807" lon="1.41401">
        <ele>212.59</ele>
        <time>2023-05-17T08:30:40Z</time>
      </trkpt>
      <trkpt lat="44.56778" lon="1.41335">
        <ele>211.15</ele>
        <time>2023-05-17T08:31:18Z</time>
      </trkpt>
      <trkpt lat="44.56753" lon="1.41265">
        <ele>210.67</ele>
        <time>2023-05-17T08:31:56Z</time>
      </trkpt>
      <trkpt lat="44.56732" lon="1.41195">
        <ele>210.19</ele>
        <time>2023-05-17T08:32:29Z</time>
      </trkpt>
      <trkpt lat="44.56693" lon="1.41099">
        <ele>211.15</ele>
        <time>2023-05-17T08:33:24Z</time>
      </trkpt>
      <trkpt lat="44.56686" lon="1.41087">
        <ele>211.15</ele>
        <time>2023-05-17T08:33:32Z</time>
      </trkpt>
      <trkpt lat="44.56666" lon="1.41066">
        <ele>211.15</ele>
        <time>2023-05-17T08:33:48Z</time>
      </trkpt>
      <trkpt lat="44.56644" lon="1.41052">
        <ele>209.22</ele>
        <time>2023-05-17T08:34:04Z</time>
      </trkpt>
      <trkpt lat="44.5662" lon="1.41039">
        <ele>209.22</ele>
        <time>2023-05-17T08:34:20Z</time>
      </trkpt>
      <trkpt lat="44.56597" lon="1.41029">
        <ele>208.74</ele>
        <time>2023-05-17T08:34:34Z</time>
      </trkpt>
      <trkpt lat="44.56578" lon="1.41018">
        <ele>208.26</ele>
        <time>2023-05-17T08:34:48Z</time>
      </trkpt>
      <trkpt lat="44.56544" lon="1.41002">
        <ele>208.26</ele>
        <time>2023-05-17T08:35:13Z</time>
      </trkpt>
      <trkpt lat="44.56492" lon="1.40983">
        <ele>207.3</ele>
        <time>2023-05-17T08:35:53Z</time>
      </trkpt>
      <trkpt lat="44.56471" lon="1.40965">
        <ele>206.82</ele>
        <time>2023-05-17T08:36:11Z</time>
      </trkpt>
      <trkpt lat="44.56455" lon="1.40958">
        <ele>207.78</ele>
        <time>2023-05-17T08:36:21Z</time>
      </trkpt>
      <trkpt lat="44.56443" lon="1.40947">
        <ele>207.3</ele>
        <time>2023-05-17T08:36:37Z</time>
      </trkpt>
      <trkpt lat="44.56405" lon="1.40898">
        <ele>206.82</ele>
        <time>2023-05-17T08:37:12Z</time>
      </trkpt>
      <trkpt lat="44.56387" lon="1.40872">
        <ele>206.34</ele>
        <time>2023-05-17T08:37:29Z</time>
      </trkpt>
      <trkpt lat="44.56335" lon="1.4078">
        <ele>205.86</ele>
        <time>2023-05-17T08:38:22Z</time>
      </trkpt>
      <trkpt lat="44.56317" lon="1.40759">
        <ele>206.34</ele>
        <time>2023-05-17T08:38:38Z</time>
      </trkpt>
      <trkpt lat="44.5631" lon="1.40747">
        <ele>206.34</ele>
        <time>2023-05-17T08:38:46Z</time>
      </trkpt>
      <trkpt lat="44.56284" lon="1.40716">
        <ele>205.86</ele>
        <time>2023-05-17T08:39:10Z</time>
      </trkpt>
      <trkpt lat="44.56275" lon="1.40709">
        <ele>205.86</ele>
        <time>2023-05-17T08:39:18Z</time>
      </trkpt>
      <trkpt lat="44.56247" lon="1.40696">
        <ele>205.86</ele>
        <time>2023-05-17T08:39:46Z</time>
      </trkpt>
      <trkpt lat="44.56246" lon="1.40682">
        <ele>205.86</ele>
        <time>2023-05-17T08:39:54Z</time>
      </trkpt>
      <trkpt lat="44.56238" lon="1.40672">
        <ele>205.86</ele>
        <time>2023-05-17T08:40:03Z</time>
      </trkpt>
      <trkpt lat="44.56219" lon="1.40669">
        <ele>206.82</ele>
        <time>2023-05-17T08:40:18Z</time>
      </trkpt>
      <trkpt lat="44.56207" lon="1.4067">
        <ele>207.78</ele>
        <time>2023-05-17T08:40:27Z</time>
      </trkpt>
      <trkpt lat="44.56163" lon="1.40696">
        <ele>210.19</ele>
        <time>2023-05-17T08:42:33Z</time>
      </trkpt>
      <trkpt lat="44.56151" lon="1.40694">
        <ele>210.67</ele>
        <time>2023-05-17T08:44:04Z</time>
      </trkpt>
      <trkpt lat="44.56139" lon="1.40699">
        <ele>211.63</ele>
        <time>2023-05-17T08:44:16Z</time>
      </trkpt>
      <trkpt lat="44.56127" lon="1.40701">
        <ele>212.59</ele>
        <time>2023-05-17T08:44:26Z</time>
      </trkpt>
      <trkpt lat="44.56117" lon="1.40698">
        <ele>213.55</ele>
        <time>2023-05-17T08:44:36Z</time>
      </trkpt>
      <trkpt lat="44.561" lon="1.40685">
        <ele>216.43</ele>
        <time>2023-05-17T08:44:55Z</time>
      </trkpt>
      <trkpt lat="44.56081" lon="1.40674">
        <ele>218.36</ele>
        <time>2023-05-17T08:45:14Z</time>
      </trkpt>
      <trkpt lat="44.56061" lon="1.40659">
        <ele>221.24</ele>
        <time>2023-05-17T08:45:34Z</time>
      </trkpt>
      <trkpt lat="44.56032" lon="1.40641">
        <ele>225.57</ele>
        <time>2023-05-17T08:46:03Z</time>
      </trkpt>
      <trkpt lat="44.56002" lon="1.40601">
        <ele>229.89</ele>
        <time>2023-05-17T08:46:40Z</time>
      </trkpt>
      <trkpt lat="44.55985" lon="1.40581">
        <ele>232.3</ele>
        <time>2023-05-17T08:47:01Z</time>
      </trkpt>
      <trkpt lat="44.55942" lon="1.40554">
        <ele>237.58</ele>
        <time>2023-05-17T08:47:46Z</time>
      </trkpt>
      <trkpt lat="44.55931" lon="1.40551">
        <ele>238.54</ele>
        <time>2023-05-17T08:47:55Z</time>
      </trkpt>
      <trkpt lat="44.55909" lon="1.40555">
        <ele>241.91</ele>
        <time>2023-05-17T08:48:20Z</time>
      </trkpt>
      <trkpt lat="44.55898" lon="1.40563">
        <ele>243.83</ele>
        <time>2023-05-17T08:48:41Z</time>
      </trkpt>
      <trkpt lat="44.55894" lon="1.40555">
        <ele>244.31</ele>
        <time>2023-05-17T08:49:47Z</time>
      </trkpt>
      <trkpt lat="44.55886" lon="1.40546">
        <ele>245.75</ele>
        <time>2023-05-17T08:49:57Z</time>
      </trkpt>
      <trkpt lat="44.5585" lon="1.40567">
        <ele>250.56</ele>
        <time>2023-05-17T08:50:40Z</time>
      </trkpt>
      <trkpt lat="44.55825" lon="1.40593">
        <ele>263.6</ele>
        <time>2023-05-17T08:56:51Z</time>
      </trkpt>
      <trkpt lat="44.55801" lon="1.4069">
        <ele>265.5</ele>
        <time>2023-05-17T08:57:11Z</time>
      </trkpt>
      <trkpt lat="44.55788" lon="1.40745">
        <ele>267.8</ele>
        <time>2023-05-17T08:57:21Z</time>
      </trkpt>
      <trkpt lat="44.55756" lon="1.40775">
        <ele>269.6</ele>
        <time>2023-05-17T08:57:43Z</time>
      </trkpt>
      <trkpt lat="44.55687" lon="1.40851">
        <ele>273.4</ele>
        <time>2023-05-17T08:58:17Z</time>
      </trkpt>
      <trkpt lat="44.55647" lon="1.40881">
        <ele>278.6</ele>
      </trkpt>
      <trkpt lat="44.55579" lon="1.4094">
        <ele>293.5</ele>
        <time>2023-05-17T09:06:41Z</time>
      </trkpt>
      <trkpt lat="44.55601" lon="1.41064">
        <ele>273.63</ele>
        <time>2023-05-17T09:07:22Z</time>
      </trkpt>
      <trkpt lat="44.55605" lon="1.41121">
        <ele>271.71</ele>
        <time>2023-05-17T09:07:50Z</time>
      </trkpt>
      <trkpt lat="44.5561" lon="1.41138">
        <ele>271.23</ele>
        <time>2023-05-17T09:07:58Z</time>
      </trkpt>
      <trkpt lat="44.55636" lon="1.41185">
        <ele>267.86</ele>
        <time>2023-05-17T09:08:30Z</time>
      </trkpt>
      <trkpt lat="44.55666" lon="1.41232">
        <ele>267.38</ele>
        <time>2023-05-17T09:09:03Z</time>
      </trkpt>
      <trkpt lat="44.55692" lon="1.41286">
        <ele>269.31</ele>
        <time>2023-05-17T09:09:39Z</time>
      </trkpt>
      <trkpt lat="44.55709" lon="1.41343">
        <ele>272.19</ele>
        <time>2023-05-17T09:10:11Z</time>
      </trkpt>
      <trkpt lat="44.55721" lon="1.41401">
        <ele>274.59</ele>
        <time>2023-05-17T09:10:44Z</time>
      </trkpt>
      <trkpt lat="44.55729" lon="1.4143">
        <ele>276.04</ele>
        <time>2023-05-17T09:11:02Z</time>
      </trkpt>
      <trkpt lat="44.55736" lon="1.41443">
        <ele>277</ele>
        <time>2023-05-17T09:11:10Z</time>
      </trkpt>
      <trkpt lat="44.55745" lon="1.41453">
        <ele>277.96</ele>
        <time>2023-05-17T09:11:19Z</time>
      </trkpt>
      <trkpt lat="44.55766" lon="1.41465">
        <ele>279.4</ele>
        <time>2023-05-17T09:11:36Z</time>
      </trkpt>
      <trkpt lat="44.55778" lon="1.41468">
        <ele>279.88</ele>
        <time>2023-05-17T09:11:45Z</time>
      </trkpt>
      <trkpt lat="44.55788" lon="1.41474">
        <ele>280.84</ele>
        <time>2023-05-17T09:11:53Z</time>
      </trkpt>
      <trkpt lat="44.5581" lon="1.41481">
        <ele>282.28</ele>
        <time>2023-05-17T09:12:09Z</time>
      </trkpt>
      <trkpt lat="44.55821" lon="1.41482">
        <ele>283.25</ele>
        <time>2023-05-17T09:12:17Z</time>
      </trkpt>
      <trkpt lat="44.55841" lon="1.41488">
        <ele>284.21</ele>
        <time>2023-05-17T09:12:32Z</time>
      </trkpt>
      <trkpt lat="44.55863" lon="1.41489">
        <ele>285.17</ele>
        <time>2023-05-17T09:12:48Z</time>
      </trkpt>
      <trkpt lat="44.55896" lon="1.41486">
        <ele>287.57</ele>
        <time>2023-05-17T09:13:11Z</time>
      </trkpt>
      <trkpt lat="44.55906" lon="1.41483">
        <ele>288.53</ele>
        <time>2023-05-17T09:13:19Z</time>
      </trkpt>
      <trkpt lat="44.55918" lon="1.41483">
        <ele>289.49</ele>
        <time>2023-05-17T09:13:28Z</time>
      </trkpt>
      <trkpt lat="44.55939" lon="1.41475">
        <ele>290.46</ele>
        <time>2023-05-17T09:13:45Z</time>
      </trkpt>
      <trkpt lat="44.55948" lon="1.4147">
        <ele>291.42</ele>
        <time>2023-05-17T09:13:53Z</time>
      </trkpt>
      <trkpt lat="44.55967" lon="1.41455">
        <ele>292.86</ele>
        <time>2023-05-17T09:14:09Z</time>
      </trkpt>
      <trkpt lat="44.55997" lon="1.41435">
        <ele>295.26</ele>
        <time>2023-05-17T09:14:36Z</time>
      </trkpt>
      <trkpt lat="44.56031" lon="1.4142">
        <ele>297.67</ele>
        <time>2023-05-17T09:15:01Z</time>
      </trkpt>
      <trkpt lat="44.56029" lon="1.41413">
        <ele>298.63</ele>
        <time>2023-05-17T09:15:11Z</time>
      </trkpt>
      <trkpt lat="44.5602" lon="1.41407">
        <ele>299.11</ele>
        <time>2023-05-17T09:15:20Z</time>
      </trkpt>
      <trkpt lat="44.56014" lon="1.41395">
        <ele>299.59</ele>
        <time>2023-05-17T09:15:34Z</time>
      </trkpt>
      <trkpt lat="44.56026" lon="1.4137">
        <ele>301.03</ele>
        <time>2023-05-17T09:15:58Z</time>
      </trkpt>
      <trkpt lat="44.56041" lon="1.41351">
        <ele>303.43</ele>
        <time>2023-05-17T09:16:14Z</time>
      </trkpt>
      <trkpt lat="44.56059" lon="1.41335">
        <ele>304.88</ele>
        <time>2023-05-17T09:16:33Z</time>
      </trkpt>
      <trkpt lat="44.56067" lon="1.41323">
        <ele>305.36</ele>
        <time>2023-05-17T09:16:42Z</time>
      </trkpt>
      <trkpt lat="44.56072" lon="1.4131">
        <ele>305.36</ele>
        <time>2023-05-17T09:16:52Z</time>
      </trkpt>
      <trkpt lat="44.56079" lon="1.41316">
        <ele>305.84</ele>
        <time>2023-05-17T09:17:06Z</time>
      </trkpt>
      <trkpt lat="44.56098" lon="1.41353">
        <ele>306.32</ele>
        <time>2023-05-17T09:17:33Z</time>
      </trkpt>
      <trkpt lat="44.56107" lon="1.41381">
        <ele>304.39</ele>
        <time>2023-05-17T09:17:54Z</time>
      </trkpt>
      <trkpt lat="44.56123" lon="1.41442">
        <ele>302.95</ele>
        <time>2023-05-17T09:18:29Z</time>
      </trkpt>
      <trkpt lat="44.56144" lon="1.4149">
        <ele>303.43</ele>
        <time>2023-05-17T09:18:58Z</time>
      </trkpt>
      <trkpt lat="44.56147" lon="1.41508">
        <ele>304.88</ele>
        <time>2023-05-17T09:19:12Z</time>
      </trkpt>
      <trkpt lat="44.56131" lon="1.41501">
        <ele>304.88</ele>
        <time>2023-05-17T09:19:30Z</time>
      </trkpt>
      <trkpt lat="44.56148" lon="1.41514">
        <ele>305.84</ele>
        <time>2023-05-17T09:19:47Z</time>
      </trkpt>
      <trkpt lat="44.56157" lon="1.41524">
        <ele>305.84</ele>
        <time>2023-05-17T09:19:55Z</time>
      </trkpt>
      <trkpt lat="44.56165" lon="1.4153">
        <ele>305.84</ele>
        <time>2023-05-17T09:20:05Z</time>
      </trkpt>
      <trkpt lat="44.56172" lon="1.41541">
        <ele>305.84</ele>
        <time>2023-05-17T09:20:15Z</time>
      </trkpt>
      <trkpt lat="44.56175" lon="1.41551">
        <ele>306.8</ele>
        <time>2023-05-17T09:21:26Z</time>
      </trkpt>
      <trkpt lat="44.56176" lon="1.41575">
        <ele>306.8</ele>
        <time>2023-05-17T09:21:49Z</time>
      </trkpt>
      <trkpt lat="44.56172" lon="1.41604">
        <ele>310.16</ele>
        <time>2023-05-17T09:22:08Z</time>
      </trkpt>
      <trkpt lat="44.56167" lon="1.41694">
        <ele>314.01</ele>
        <time>2023-05-17T09:23:00Z</time>
      </trkpt>
      <trkpt lat="44.56168" lon="1.41709">
        <ele>314.01</ele>
        <time>2023-05-17T09:23:08Z</time>
      </trkpt>
      <trkpt lat="44.56156" lon="1.41732">
        <ele>314.49</ele>
        <time>2023-05-17T09:23:24Z</time>
      </trkpt>
      <trkpt lat="44.56152" lon="1.41746">
        <ele>315.45</ele>
        <time>2023-05-17T09:23:32Z</time>
      </trkpt>
      <trkpt lat="44.56155" lon="1.41772">
        <ele>315.93</ele>
        <time>2023-05-17T09:23:48Z</time>
      </trkpt>
      <trkpt lat="44.56144" lon="1.41812">
        <ele>317.37</ele>
        <time>2023-05-17T09:24:11Z</time>
      </trkpt>
      <trkpt lat="44.56138" lon="1.41823">
        <ele>317.37</ele>
        <time>2023-05-17T09:24:19Z</time>
      </trkpt>
      <trkpt lat="44.56134" lon="1.41866">
        <ele>318.33</ele>
        <time>2023-05-17T09:24:44Z</time>
      </trkpt>
      <trkpt lat="44.56138" lon="1.41898">
        <ele>318.33</ele>
        <time>2023-05-17T09:25:02Z</time>
      </trkpt>
      <trkpt lat="44.56139" lon="1.41961">
        <ele>311.12</ele>
        <time>2023-05-17T09:25:37Z</time>
      </trkpt>
      <trkpt lat="44.56142" lon="1.41977">
        <ele>309.2</ele>
        <time>2023-05-17T09:25:45Z</time>
      </trkpt>
      <trkpt lat="44.56143" lon="1.42016">
        <ele>304.39</ele>
        <time>2023-05-17T09:26:04Z</time>
      </trkpt>
      <trkpt lat="44.56135" lon="1.42025">
        <ele>303.91</ele>
        <time>2023-05-17T09:26:14Z</time>
      </trkpt>
      <trkpt lat="44.56112" lon="1.42033">
        <ele>301.51</ele>
        <time>2023-05-17T09:26:34Z</time>
      </trkpt>
      <trkpt lat="44.56085" lon="1.42049">
        <ele>302.95</ele>
        <time>2023-05-17T09:26:56Z</time>
      </trkpt>
      <trkpt lat="44.56072" lon="1.4206">
        <ele>303.91</ele>
        <time>2023-05-17T09:27:06Z</time>
      </trkpt>
      <trkpt lat="44.56047" lon="1.42068">
        <ele>305.84</ele>
        <time>2023-05-17T09:27:25Z</time>
      </trkpt>
      <trkpt lat="44.56036" lon="1.42096">
        <ele>306.32</ele>
        <time>2023-05-17T09:27:41Z</time>
      </trkpt>
      <trkpt lat="44.56029" lon="1.42123">
        <ele>306.8</ele>
        <time>2023-05-17T09:27:58Z</time>
      </trkpt>
      <trkpt lat="44.56023" lon="1.42134">
        <ele>307.28</ele>
        <time>2023-05-17T09:28:15Z</time>
      </trkpt>
      <trkpt lat="44.56007" lon="1.42131">
        <ele>309.68</ele>
        <time>2023-05-17T09:32:17Z</time>
      </trkpt>
      <trkpt lat="44.55988" lon="1.42116">
        <ele>309.2</ele>
        <time>2023-05-17T09:32:37Z</time>
      </trkpt>
      <trkpt lat="44.55968" lon="1.42093">
        <ele>307.28</ele>
        <time>2023-05-17T09:32:55Z</time>
      </trkpt>
      <trkpt lat="44.55957" lon="1.42084">
        <ele>306.8</ele>
        <time>2023-05-17T09:33:04Z</time>
      </trkpt>
      <trkpt lat="44.55937" lon="1.42063">
        <ele>304.88</ele>
        <time>2023-05-17T09:33:22Z</time>
      </trkpt>
      <trkpt lat="44.55928" lon="1.42051">
        <ele>303.91</ele>
        <time>2023-05-17T09:33:31Z</time>
      </trkpt>
      <trkpt lat="44.55918" lon="1.42042">
        <ele>302.47</ele>
        <time>2023-05-17T09:33:39Z</time>
      </trkpt>
      <trkpt lat="44.55902" lon="1.42016">
        <ele>297.67</ele>
        <time>2023-05-17T09:33:58Z</time>
      </trkpt>
      <trkpt lat="44.55884" lon="1.41992">
        <ele>293.34</ele>
        <time>2023-05-17T09:34:15Z</time>
      </trkpt>
      <trkpt lat="44.55866" lon="1.41974">
        <ele>290.94</ele>
        <time>2023-05-17T09:34:31Z</time>
      </trkpt>
      <trkpt lat="44.55843" lon="1.41945">
        <ele>286.13</ele>
        <time>2023-05-17T09:34:54Z</time>
      </trkpt>
      <trkpt lat="44.55829" lon="1.41917">
        <ele>282.77</ele>
        <time>2023-05-17T09:35:12Z</time>
      </trkpt>
      <trkpt lat="44.55813" lon="1.4189">
        <ele>280.84</ele>
        <time>2023-05-17T09:35:28Z</time>
      </trkpt>
      <trkpt lat="44.55781" lon="1.41846">
        <ele>277</ele>
        <time>2023-05-17T09:35:58Z</time>
      </trkpt>
      <trkpt lat="44.55742" lon="1.41798">
        <ele>273.63</ele>
        <time>2023-05-17T09:36:33Z</time>
      </trkpt>
      <trkpt lat="44.55723" lon="1.41762">
        <ele>269.31</ele>
        <time>2023-05-17T09:36:57Z</time>
      </trkpt>
      <trkpt lat="44.55715" lon="1.41751">
        <ele>268.83</ele>
        <time>2023-05-17T09:37:05Z</time>
      </trkpt>
      <trkpt lat="44.55704" lon="1.41755">
        <ele>268.35</ele>
        <time>2023-05-17T09:37:14Z</time>
      </trkpt>
      <trkpt lat="44.55649" lon="1.41764">
        <ele>264.5</ele>
        <time>2023-05-17T09:37:56Z</time>
      </trkpt>
      <trkpt lat="44.55634" lon="1.41768">
        <ele>264.5</ele>
        <time>2023-05-17T09:38:09Z</time>
      </trkpt>
      <trkpt lat="44.55613" lon="1.41776">
        <ele>264.5</ele>
        <time>2023-05-17T09:38:26Z</time>
      </trkpt>
      <trkpt lat="44.55596" lon="1.41779">
        <ele>264.02</ele>
        <time>2023-05-17T09:38:39Z</time>
      </trkpt>
      <trkpt lat="44.55577" lon="1.41785">
        <ele>263.54</ele>
        <time>2023-05-17T09:38:52Z</time>
      </trkpt>
      <trkpt lat="44.55559" lon="1.41787">
        <ele>263.06</ele>
        <time>2023-05-17T09:39:03Z</time>
      </trkpt>
      <trkpt lat="44.55541" lon="1.41794">
        <ele>262.58</ele>
        <time>2023-05-17T09:39:15Z</time>
      </trkpt>
      <trkpt lat="44.55526" lon="1.4179">
        <ele>262.58</ele>
        <time>2023-05-17T09:39:28Z</time>
      </trkpt>
      <trkpt lat="44.55515" lon="1.41776">
        <ele>262.58</ele>
        <time>2023-05-17T09:39:36Z</time>
      </trkpt>
      <trkpt lat="44.55498" lon="1.41747">
        <ele>262.1</ele>
        <time>2023-05-17T09:39:53Z</time>
      </trkpt>
      <trkpt lat="44.5548" lon="1.41721">
        <ele>261.14</ele>
        <time>2023-05-17T09:40:11Z</time>
      </trkpt>
      <trkpt lat="44.55463" lon="1.41687">
        <ele>259.21</ele>
        <time>2023-05-17T09:40:30Z</time>
      </trkpt>
      <trkpt lat="44.55457" lon="1.41672">
        <ele>258.73</ele>
        <time>2023-05-17T09:40:38Z</time>
      </trkpt>
      <trkpt lat="44.55448" lon="1.41658">
        <ele>258.73</ele>
        <time>2023-05-17T09:40:48Z</time>
      </trkpt>
      <trkpt lat="44.55424" lon="1.41632">
        <ele>260.17</ele>
        <time>2023-05-17T09:41:08Z</time>
      </trkpt>
      <trkpt lat="44.55394" lon="1.4162">
        <ele>261.14</ele>
        <time>2023-05-17T09:41:33Z</time>
      </trkpt>
      <trkpt lat="44.55378" lon="1.41612">
        <ele>261.14</ele>
        <time>2023-05-17T09:41:46Z</time>
      </trkpt>
      <trkpt lat="44.55316" lon="1.41575">
        <ele>259.21</ele>
        <time>2023-05-17T09:42:33Z</time>
      </trkpt>
      <trkpt lat="44.55297" lon="1.41574">
        <ele>257.77</ele>
        <time>2023-05-17T09:42:48Z</time>
      </trkpt>
      <trkpt lat="44.55258" lon="1.41579">
        <ele>256.33</ele>
        <time>2023-05-17T09:43:15Z</time>
      </trkpt>
      <trkpt lat="44.55245" lon="1.41584">
        <ele>256.33</ele>
        <time>2023-05-17T09:43:27Z</time>
      </trkpt>
      <trkpt lat="44.55232" lon="1.41603">
        <ele>258.25</ele>
        <time>2023-05-17T09:43:46Z</time>
      </trkpt>
      <trkpt lat="44.55223" lon="1.41622">
        <ele>261.14</ele>
        <time>2023-05-17T09:44:01Z</time>
      </trkpt>
      <trkpt lat="44.55218" lon="1.41643">
        <ele>264.02</ele>
        <time>2023-05-17T09:44:16Z</time>
      </trkpt>
      <trkpt lat="44.55216" lon="1.41664">
        <ele>265.46</ele>
        <time>2023-05-17T09:44:32Z</time>
      </trkpt>
      <trkpt lat="44.55222" lon="1.41703">
        <ele>267.38</ele>
        <time>2023-05-17T09:44:56Z</time>
      </trkpt>
      <trkpt lat="44.55239" lon="1.41737">
        <ele>266.42</ele>
        <time>2023-05-17T09:45:18Z</time>
      </trkpt>
      <trkpt lat="44.55248" lon="1.41772">
        <ele>265.46</ele>
        <time>2023-05-17T09:45:38Z</time>
      </trkpt>
      <trkpt lat="44.55248" lon="1.4179">
        <ele>264.98</ele>
        <time>2023-05-17T09:45:49Z</time>
      </trkpt>
      <trkpt lat="44.55241" lon="1.4181">
        <ele>264.5</ele>
        <time>2023-05-17T09:46:03Z</time>
      </trkpt>
      <trkpt lat="44.5521" lon="1.41837">
        <ele>264.02</ele>
        <time>2023-05-17T09:46:30Z</time>
      </trkpt>
      <trkpt lat="44.55169" lon="1.41866">
        <ele>264.98</ele>
        <time>2023-05-17T09:47:04Z</time>
      </trkpt>
      <trkpt lat="44.55151" lon="1.41888">
        <ele>265.94</ele>
        <time>2023-05-17T09:47:23Z</time>
      </trkpt>
      <trkpt lat="44.55138" lon="1.41899">
        <ele>266.9</ele>
        <time>2023-05-17T09:47:37Z</time>
      </trkpt>
      <trkpt lat="44.55108" lon="1.41915">
        <ele>269.31</ele>
        <time>2023-05-17T09:48:00Z</time>
      </trkpt>
      <trkpt lat="44.55075" lon="1.41923">
        <ele>273.15</ele>
        <time>2023-05-17T09:48:31Z</time>
      </trkpt>
      <trkpt lat="44.55065" lon="1.41929">
        <ele>274.59</ele>
        <time>2023-05-17T09:48:45Z</time>
      </trkpt>
      <trkpt lat="44.55066" lon="1.41942">
        <ele>275.56</ele>
        <time>2023-05-17T09:48:57Z</time>
      </trkpt>
      <trkpt lat="44.55084" lon="1.41999">
        <ele>282.77</ele>
        <time>2023-05-17T09:49:44Z</time>
      </trkpt>
      <trkpt lat="44.55099" lon="1.42058">
        <ele>289.97</ele>
        <time>2023-05-17T09:50:25Z</time>
      </trkpt>
      <trkpt lat="44.55119" lon="1.42152">
        <ele>297.67</ele>
        <time>2023-05-17T09:51:30Z</time>
      </trkpt>
      <trkpt lat="44.55143" lon="1.42247">
        <ele>301.99</ele>
        <time>2023-05-17T09:52:29Z</time>
      </trkpt>
      <trkpt lat="44.55142" lon="1.4226">
        <ele>301.99</ele>
        <time>2023-05-17T09:52:38Z</time>
      </trkpt>
      <trkpt lat="44.5512" lon="1.42265">
        <ele>301.99</ele>
        <time>2023-05-17T09:52:57Z</time>
      </trkpt>
      <trkpt lat="44.55075" lon="1.42286">
        <ele>301.99</ele>
        <time>2023-05-17T09:53:31Z</time>
      </trkpt>
      <trkpt lat="44.55037" lon="1.42319">
        <ele>301.99</ele>
        <time>2023-05-17T09:54:02Z</time>
      </trkpt>
      <trkpt lat="44.55005" lon="1.42352">
        <ele>301.51</ele>
        <time>2023-05-17T09:54:31Z</time>
      </trkpt>
      <trkpt lat="44.54983" lon="1.4236">
        <ele>300.07</ele>
        <time>2023-05-17T09:54:50Z</time>
      </trkpt>
      <trkpt lat="44.54962" lon="1.42372">
        <ele>299.59</ele>
        <time>2023-05-17T09:55:05Z</time>
      </trkpt>
      <trkpt lat="44.54909" lon="1.42397">
        <ele>293.82</ele>
        <time>2023-05-17T09:55:47Z</time>
      </trkpt>
      <trkpt lat="44.54882" lon="1.42405">
        <ele>289.97</ele>
        <time>2023-05-17T09:56:08Z</time>
      </trkpt>
      <trkpt lat="44.54869" lon="1.42414">
        <ele>287.57</ele>
        <time>2023-05-17T09:56:20Z</time>
      </trkpt>
      <trkpt lat="44.5485" lon="1.42443">
        <ele>284.21</ele>
        <time>2023-05-17T09:56:40Z</time>
      </trkpt>
      <trkpt lat="44.54838" lon="1.42457">
        <ele>282.28</ele>
        <time>2023-05-17T09:56:53Z</time>
      </trkpt>
      <trkpt lat="44.54806" lon="1.42477">
        <ele>278.44</ele>
        <time>2023-05-17T09:57:24Z</time>
      </trkpt>
      <trkpt lat="44.54796" lon="1.42475">
        <ele>277</ele>
        <time>2023-05-17T09:57:33Z</time>
      </trkpt>
      <trkpt lat="44.54799" lon="1.42436">
        <ele>273.15</ele>
        <time>2023-05-17T09:58:02Z</time>
      </trkpt>
      <trkpt lat="44.54793" lon="1.42424">
        <ele>271.71</ele>
        <time>2023-05-17T09:58:10Z</time>
      </trkpt>
      <trkpt lat="44.54751" lon="1.42454">
        <ele>267.86</ele>
        <time>2023-05-17T09:58:46Z</time>
      </trkpt>
      <trkpt lat="44.54739" lon="1.42461">
        <ele>266.42</ele>
        <time>2023-05-17T09:58:55Z</time>
      </trkpt>
      <trkpt lat="44.54716" lon="1.4248">
        <ele>262.58</ele>
        <time>2023-05-17T09:59:14Z</time>
      </trkpt>
      <trkpt lat="44.54694" lon="1.42501">
        <ele>261.14</ele>
        <time>2023-05-17T09:59:34Z</time>
      </trkpt>
      <trkpt lat="44.54687" lon="1.42495">
        <ele>259.21</ele>
        <time>2023-05-17T09:59:44Z</time>
      </trkpt>
      <trkpt lat="44.54695" lon="1.42488">
        <ele>258.25</ele>
        <time>2023-05-17T09:59:54Z</time>
      </trkpt>
      <trkpt lat="44.547" lon="1.42474">
        <ele>257.77</ele>
        <time>2023-05-17T10:00:02Z</time>
      </trkpt>
      <trkpt lat="44.54715" lon="1.42449">
        <ele>256.33</ele>
        <time>2023-05-17T10:00:17Z</time>
      </trkpt>
      <trkpt lat="44.54731" lon="1.42409">
        <ele>252.96</ele>
        <time>2023-05-17T10:00:42Z</time>
      </trkpt>
      <trkpt lat="44.54728" lon="1.42393">
        <ele>252</ele>
        <time>2023-05-17T10:00:50Z</time>
      </trkpt>
      <trkpt lat="44.5472" lon="1.42397">
        <ele>249.6</ele>
        <time>2023-05-17T10:01:00Z</time>
      </trkpt>
      <trkpt lat="44.54708" lon="1.42413">
        <ele>247.2</ele>
        <time>2023-05-17T10:01:14Z</time>
      </trkpt>
      <trkpt lat="44.54695" lon="1.42423">
        <ele>245.27</ele>
        <time>2023-05-17T10:01:25Z</time>
      </trkpt>
      <trkpt lat="44.54663" lon="1.42428">
        <ele>241.43</ele>
        <time>2023-05-17T10:01:50Z</time>
      </trkpt>
      <trkpt lat="44.54644" lon="1.42436">
        <ele>239.51</ele>
        <time>2023-05-17T10:02:05Z</time>
      </trkpt>
      <trkpt lat="44.54619" lon="1.42439">
        <ele>237.58</ele>
        <time>2023-05-17T10:02:21Z</time>
      </trkpt>
      <trkpt lat="44.54603" lon="1.42436">
        <ele>236.62</ele>
        <time>2023-05-17T10:02:32Z</time>
      </trkpt>
      <trkpt lat="44.54587" lon="1.42429">
        <ele>234.22</ele>
        <time>2023-05-17T10:02:46Z</time>
      </trkpt>
      <trkpt lat="44.54572" lon="1.42425">
        <ele>233.74</ele>
        <time>2023-05-17T10:02:56Z</time>
      </trkpt>
      <trkpt lat="44.54557" lon="1.42424">
        <ele>232.78</ele>
        <time>2023-05-17T10:03:08Z</time>
      </trkpt>
      <trkpt lat="44.54527" lon="1.4243">
        <ele>229.89</ele>
        <time>2023-05-17T10:03:30Z</time>
      </trkpt>
      <trkpt lat="44.5451" lon="1.42435">
        <ele>228.93</ele>
        <time>2023-05-17T10:03:42Z</time>
      </trkpt>
      <trkpt lat="44.54493" lon="1.42445">
        <ele>227.49</ele>
        <time>2023-05-17T10:04:00Z</time>
      </trkpt>
      <trkpt lat="44.54477" lon="1.42448">
        <ele>226.53</ele>
        <time>2023-05-17T10:04:13Z</time>
      </trkpt>
      <trkpt lat="44.54449" lon="1.42444">
        <ele>223.64</ele>
        <time>2023-05-17T10:04:34Z</time>
      </trkpt>
      <trkpt lat="44.5441" lon="1.42447">
        <ele>222.68</ele>
        <time>2023-05-17T10:04:59Z</time>
      </trkpt>
      <trkpt lat="44.54396" lon="1.42453">
        <ele>222.2</ele>
        <time>2023-05-17T10:05:08Z</time>
      </trkpt>
      <trkpt lat="44.54383" lon="1.42461">
        <ele>220.28</ele>
        <time>2023-05-17T10:05:18Z</time>
      </trkpt>
      <trkpt lat="44.54369" lon="1.4246">
        <ele>217.88</ele>
        <time>2023-05-17T10:05:28Z</time>
      </trkpt>
      <trkpt lat="44.54331" lon="1.42444">
        <ele>215.95</ele>
        <time>2023-05-17T10:05:45Z</time>
      </trkpt>
      <trkpt lat="44.54318" lon="1.42444">
        <ele>214.51</ele>
        <time>2023-05-17T10:05:53Z</time>
      </trkpt>
      <trkpt lat="44.54296" lon="1.42432">
        <ele>212.59</ele>
        <time>2023-05-17T10:06:10Z</time>
      </trkpt>
      <trkpt lat="44.54272" lon="1.42422">
        <ele>210.67</ele>
        <time>2023-05-17T10:06:28Z</time>
      </trkpt>
      <trkpt lat="44.54247" lon="1.42408">
        <ele>209.7</ele>
        <time>2023-05-17T10:06:44Z</time>
      </trkpt>
      <trkpt lat="44.54209" lon="1.42375">
        <ele>204.9</ele>
        <time>2023-05-17T10:07:14Z</time>
      </trkpt>
      <trkpt lat="44.54137" lon="1.42338">
        <ele>197.69</ele>
        <time>2023-05-17T10:08:05Z</time>
      </trkpt>
      <trkpt lat="44.54116" lon="1.42332">
        <ele>195.77</ele>
        <time>2023-05-17T10:08:22Z</time>
      </trkpt>
      <trkpt lat="44.54094" lon="1.42323">
        <ele>193.84</ele>
        <time>2023-05-17T10:08:38Z</time>
      </trkpt>
      <trkpt lat="44.54083" lon="1.42321">
        <ele>193.84</ele>
        <time>2023-05-17T10:08:46Z</time>
      </trkpt>
      <trkpt lat="44.54072" lon="1.42323">
        <ele>193.36</ele>
        <time>2023-05-17T10:08:53Z</time>
      </trkpt>
      <trkpt lat="44.54062" lon="1.42328">
        <ele>192.88</ele>
        <time>2023-05-17T10:09:01Z</time>
      </trkpt>
      <trkpt lat="44.54053" lon="1.42335">
        <ele>192.4</ele>
        <time>2023-05-17T10:09:08Z</time>
      </trkpt>
      <trkpt lat="44.54046" lon="1.42345">
        <ele>191.92</ele>
        <time>2023-05-17T10:09:16Z</time>
      </trkpt>
      <trkpt lat="44.54042" lon="1.42357">
        <ele>190.96</ele>
        <time>2023-05-17T10:09:24Z</time>
      </trkpt>
      <trkpt lat="44.54043" lon="1.42371">
        <ele>190</ele>
        <time>2023-05-17T10:09:33Z</time>
      </trkpt>
      <trkpt lat="44.54042" lon="1.42388">
        <ele>188.56</ele>
        <time>2023-05-17T10:09:42Z</time>
      </trkpt>
      <trkpt lat="44.54039" lon="1.42401">
        <ele>187.59</ele>
        <time>2023-05-17T10:09:51Z</time>
      </trkpt>
      <trkpt lat="44.5403" lon="1.4241">
        <ele>186.15</ele>
        <time>2023-05-17T10:10:00Z</time>
      </trkpt>
      <trkpt lat="44.54015" lon="1.4243">
        <ele>185.67</ele>
        <time>2023-05-17T10:10:21Z</time>
      </trkpt>
      <trkpt lat="44.54008" lon="1.42442">
        <ele>185.67</ele>
        <time>2023-05-17T10:10:30Z</time>
      </trkpt>
      <trkpt lat="44.54003" lon="1.42475">
        <ele>185.67</ele>
        <time>2023-05-17T10:10:50Z</time>
      </trkpt>
      <trkpt lat="44.54" lon="1.4251">
        <ele>185.19</ele>
        <time>2023-05-17T10:11:13Z</time>
      </trkpt>
      <trkpt lat="44.53996" lon="1.42524">
        <ele>185.19</ele>
        <time>2023-05-17T10:11:20Z</time>
      </trkpt>
      <trkpt lat="44.53978" lon="1.42556">
        <ele>185.19</ele>
        <time>2023-05-17T10:11:40Z</time>
      </trkpt>
      <trkpt lat="44.53971" lon="1.42573">
        <ele>185.19</ele>
        <time>2023-05-17T10:11:51Z</time>
      </trkpt>
      <trkpt lat="44.53964" lon="1.42637">
        <ele>187.59</ele>
        <time>2023-05-17T10:12:24Z</time>
      </trkpt>
      <trkpt lat="44.53951" lon="1.427">
        <ele>188.08</ele>
        <time>2023-05-17T10:12:54Z</time>
      </trkpt>
      <trkpt lat="44.53943" lon="1.42727">
        <ele>189.04</ele>
        <time>2023-05-17T10:13:10Z</time>
      </trkpt>
      <trkpt lat="44.53941" lon="1.4274">
        <ele>190</ele>
        <time>2023-05-17T10:13:18Z</time>
      </trkpt>
      <trkpt lat="44.53941" lon="1.42754">
        <ele>190</ele>
        <time>2023-05-17T10:13:28Z</time>
      </trkpt>
      <trkpt lat="44.53938" lon="1.42768">
        <ele>190.96</ele>
        <time>2023-05-17T10:13:39Z</time>
      </trkpt>
      <trkpt lat="44.53932" lon="1.42781">
        <ele>191.92</ele>
        <time>2023-05-17T10:13:49Z</time>
      </trkpt>
      <trkpt lat="44.53924" lon="1.42793">
        <ele>191.92</ele>
        <time>2023-05-17T10:13:58Z</time>
      </trkpt>
      <trkpt lat="44.53917" lon="1.42811">
        <ele>191.92</ele>
        <time>2023-05-17T10:14:08Z</time>
      </trkpt>
      <trkpt lat="44.53909" lon="1.42824">
        <ele>192.88</ele>
        <time>2023-05-17T10:14:16Z</time>
      </trkpt>
      <trkpt lat="44.53902" lon="1.4284">
        <ele>193.84</ele>
        <time>2023-05-17T10:14:27Z</time>
      </trkpt>
      <trkpt lat="44.53886" lon="1.42906">
        <ele>195.28</ele>
        <time>2023-05-17T10:15:12Z</time>
      </trkpt>
      <trkpt lat="44.53885" lon="1.42937">
        <ele>198.65</ele>
        <time>2023-05-17T10:15:31Z</time>
      </trkpt>
      <trkpt lat="44.53865" lon="1.42974">
        <ele>196.25</ele>
        <time>2023-05-17T10:16:00Z</time>
      </trkpt>
      <trkpt lat="44.53859" lon="1.4299">
        <ele>196.25</ele>
        <time>2023-05-17T10:16:11Z</time>
      </trkpt>
      <trkpt lat="44.53849" lon="1.43028">
        <ele>196.25</ele>
        <time>2023-05-17T10:16:34Z</time>
      </trkpt>
      <trkpt lat="44.53836" lon="1.43066">
        <ele>197.69</ele>
        <time>2023-05-17T10:16:57Z</time>
      </trkpt>
      <trkpt lat="44.53828" lon="1.43103">
        <ele>197.69</ele>
        <time>2023-05-17T10:17:18Z</time>
      </trkpt>
      <trkpt lat="44.53826" lon="1.43142">
        <ele>197.69</ele>
        <time>2023-05-17T10:17:38Z</time>
      </trkpt>
      <trkpt lat="44.53827" lon="1.43159">
        <ele>198.65</ele>
        <time>2023-05-17T10:17:48Z</time>
      </trkpt>
      <trkpt lat="44.53816" lon="1.43231">
        <ele>199.61</ele>
        <time>2023-05-17T10:18:28Z</time>
      </trkpt>
      <trkpt lat="44.53803" lon="1.433">
        <ele>199.61</ele>
        <time>2023-05-17T10:19:03Z</time>
      </trkpt>
      <trkpt lat="44.53792" lon="1.43371">
        <ele>200.57</ele>
        <time>2023-05-17T10:19:44Z</time>
      </trkpt>
      <trkpt lat="44.53791" lon="1.43388">
        <ele>201.53</ele>
        <time>2023-05-17T10:19:53Z</time>
      </trkpt>
      <trkpt lat="44.53788" lon="1.43405">
        <ele>202.01</ele>
        <time>2023-05-17T10:20:03Z</time>
      </trkpt>
      <trkpt lat="44.53789" lon="1.43444">
        <ele>203.94</ele>
        <time>2023-05-17T10:20:26Z</time>
      </trkpt>
      <trkpt lat="44.53787" lon="1.43461">
        <ele>203.46</ele>
        <time>2023-05-17T10:20:35Z</time>
      </trkpt>
      <trkpt lat="44.53782" lon="1.43477">
        <ele>203.46</ele>
        <time>2023-05-17T10:20:45Z</time>
      </trkpt>
      <trkpt lat="44.53783" lon="1.43509">
        <ele>202.49</ele>
        <time>2023-05-17T10:21:03Z</time>
      </trkpt>
      <trkpt lat="44.53781" lon="1.43526">
        <ele>203.46</ele>
        <time>2023-05-17T10:21:13Z</time>
      </trkpt>
      <trkpt lat="44.53782" lon="1.43543">
        <ele>203.46</ele>
        <time>2023-05-17T10:21:22Z</time>
      </trkpt>
      <trkpt lat="44.53781" lon="1.43566">
        <ele>203.46</ele>
        <time>2023-05-17T10:21:34Z</time>
      </trkpt>
      <trkpt lat="44.53776" lon="1.43586">
        <ele>203.46</ele>
        <time>2023-05-17T10:21:45Z</time>
      </trkpt>
      <trkpt lat="44.5378" lon="1.43603">
        <ele>203.46</ele>
        <time>2023-05-17T10:21:56Z</time>
      </trkpt>
      <trkpt lat="44.53781" lon="1.43625">
        <ele>203.46</ele>
        <time>2023-05-17T10:22:07Z</time>
      </trkpt>
      <trkpt lat="44.53784" lon="1.43647">
        <ele>203.46</ele>
        <time>2023-05-17T10:22:18Z</time>
      </trkpt>
      <trkpt lat="44.53782" lon="1.43689">
        <ele>203.46</ele>
        <time>2023-05-17T10:22:42Z</time>
      </trkpt>
      <trkpt lat="44.53778" lon="1.43723">
        <ele>203.94</ele>
        <time>2023-05-17T10:23:00Z</time>
      </trkpt>
      <trkpt lat="44.53777" lon="1.43746">
        <ele>204.9</ele>
        <time>2023-05-17T10:23:15Z</time>
      </trkpt>
      <trkpt lat="44.53787" lon="1.43791">
        <ele>207.3</ele>
        <time>2023-05-17T10:23:44Z</time>
      </trkpt>
      <trkpt lat="44.53787" lon="1.43806">
        <ele>205.86</ele>
        <time>2023-05-17T10:23:55Z</time>
      </trkpt>
      <trkpt lat="44.53789" lon="1.43823">
        <ele>205.38</ele>
        <time>2023-05-17T10:24:05Z</time>
      </trkpt>
      <trkpt lat="44.53789" lon="1.43864">
        <ele>204.42</ele>
        <time>2023-05-17T10:24:25Z</time>
      </trkpt>
      <trkpt lat="44.53787" lon="1.43884">
        <ele>204.42</ele>
        <time>2023-05-17T10:24:33Z</time>
      </trkpt>
      <trkpt lat="44.53788" lon="1.43919">
        <ele>205.86</ele>
        <time>2023-05-17T10:24:53Z</time>
      </trkpt>
      <trkpt lat="44.53782" lon="1.43987">
        <ele>207.3</ele>
        <time>2023-05-17T10:25:30Z</time>
      </trkpt>
      <trkpt lat="44.53784" lon="1.44006">
        <ele>207.3</ele>
        <time>2023-05-17T10:25:41Z</time>
      </trkpt>
      <trkpt lat="44.53783" lon="1.44028">
        <ele>207.3</ele>
        <time>2023-05-17T10:25:51Z</time>
      </trkpt>
      <trkpt lat="44.53784" lon="1.44049">
        <ele>207.78</ele>
        <time>2023-05-17T10:26:01Z</time>
      </trkpt>
      <trkpt lat="44.53783" lon="1.44068">
        <ele>207.78</ele>
        <time>2023-05-17T10:26:10Z</time>
      </trkpt>
      <trkpt lat="44.53784" lon="1.44086">
        <ele>207.78</ele>
        <time>2023-05-17T10:26:19Z</time>
      </trkpt>
      <trkpt lat="44.53783" lon="1.44118">
        <ele>207.78</ele>
        <time>2023-05-17T10:26:38Z</time>
      </trkpt>
      <trkpt lat="44.53785" lon="1.44141">
        <ele>208.26</ele>
        <time>2023-05-17T10:26:51Z</time>
      </trkpt>
      <trkpt lat="44.5379" lon="1.44164">
        <ele>209.22</ele>
        <time>2023-05-17T10:27:04Z</time>
      </trkpt>
      <trkpt lat="44.53792" lon="1.44186">
        <ele>209.7</ele>
        <time>2023-05-17T10:27:18Z</time>
      </trkpt>
      <trkpt lat="44.53798" lon="1.44207">
        <ele>210.19</ele>
        <time>2023-05-17T10:27:29Z</time>
      </trkpt>
      <trkpt lat="44.538" lon="1.44225">
        <ele>208.74</ele>
        <time>2023-05-17T10:27:39Z</time>
      </trkpt>
      <trkpt lat="44.538" lon="1.44261">
        <ele>208.74</ele>
        <time>2023-05-17T10:27:59Z</time>
      </trkpt>
      <trkpt lat="44.53792" lon="1.44345">
        <ele>212.11</ele>
        <time>2023-05-17T10:28:47Z</time>
      </trkpt>
      <trkpt lat="44.53785" lon="1.44387">
        <ele>209.22</ele>
        <time>2023-05-17T10:29:10Z</time>
      </trkpt>
      <trkpt lat="44.53787" lon="1.44406">
        <ele>211.15</ele>
        <time>2023-05-17T10:29:35Z</time>
      </trkpt>
      <trkpt lat="44.53796" lon="1.44439">
        <ele>213.07</ele>
        <time>2023-05-17T10:29:58Z</time>
      </trkpt>
      <trkpt lat="44.53802" lon="1.44477">
        <ele>213.55</ele>
        <time>2023-05-17T10:30:22Z</time>
      </trkpt>
      <trkpt lat="44.53806" lon="1.44493">
        <ele>212.11</ele>
        <time>2023-05-17T10:30:32Z</time>
      </trkpt>
      <trkpt lat="44.53808" lon="1.44511">
        <ele>212.11</ele>
        <time>2023-05-17T10:30:41Z</time>
      </trkpt>
      <trkpt lat="44.53815" lon="1.44531">
        <ele>212.11</ele>
        <time>2023-05-17T10:31:00Z</time>
      </trkpt>
      <trkpt lat="44.53866" lon="1.44537">
        <ele>217.4</ele>
        <time>2023-05-17T10:31:55Z</time>
      </trkpt>
      <trkpt lat="44.53881" lon="1.44537">
        <ele>218.36</ele>
        <time>2023-05-17T10:32:08Z</time>
      </trkpt>
      <trkpt lat="44.53925" lon="1.4453">
        <ele>223.16</ele>
        <time>2023-05-17T10:32:50Z</time>
      </trkpt>
      <trkpt lat="44.53952" lon="1.44531">
        <ele>225.09</ele>
        <time>2023-05-17T10:33:12Z</time>
      </trkpt>
      <trkpt lat="44.53979" lon="1.44528">
        <ele>227.49</ele>
        <time>2023-05-17T10:33:36Z</time>
      </trkpt>
      <trkpt lat="44.54" lon="1.44531">
        <ele>228.93</ele>
        <time>2023-05-17T10:34:08Z</time>
      </trkpt>
      <trkpt lat="44.54013" lon="1.44522">
        <ele>232.3</ele>
        <time>2023-05-17T10:38:15Z</time>
      </trkpt>
      <trkpt lat="44.54024" lon="1.44521">
        <ele>236.14</ele>
        <time>2023-05-17T10:38:38Z</time>
      </trkpt>
      <trkpt lat="44.54035" lon="1.44512">
        <ele>238.54</ele>
        <time>2023-05-17T10:38:54Z</time>
      </trkpt>
      <trkpt lat="44.54064" lon="1.44497">
        <ele>246.72</ele>
        <time>2023-05-17T10:39:49Z</time>
      </trkpt>
      <trkpt lat="44.54077" lon="1.44488">
        <ele>249.6</ele>
        <time>2023-05-17T10:40:10Z</time>
      </trkpt>
      <trkpt lat="44.54088" lon="1.44474">
        <ele>253.93</ele>
        <time>2023-05-17T10:40:39Z</time>
      </trkpt>
      <trkpt lat="44.5411" lon="1.44452">
        <ele>264.98</ele>
        <time>2023-05-17T10:42:02Z</time>
      </trkpt>
      <trkpt lat="44.54118" lon="1.44441">
        <ele>268.83</ele>
        <time>2023-05-17T10:42:22Z</time>
      </trkpt>
      <trkpt lat="44.54127" lon="1.44414">
        <ele>275.07</ele>
        <time>2023-05-17T10:43:03Z</time>
      </trkpt>
      <trkpt lat="44.54139" lon="1.44423">
        <ele>279.4</ele>
        <time>2023-05-17T10:43:28Z</time>
      </trkpt>
      <trkpt lat="44.54148" lon="1.44418">
        <ele>282.77</ele>
        <time>2023-05-17T10:43:49Z</time>
      </trkpt>
      <trkpt lat="44.54161" lon="1.44415">
        <ele>286.13</ele>
        <time>2023-05-17T10:44:10Z</time>
      </trkpt>
      <trkpt lat="44.54189" lon="1.44394">
        <ele>288.05</ele>
        <time>2023-05-17T10:45:00Z</time>
      </trkpt>
      <trkpt lat="44.54195" lon="1.44382">
        <ele>286.61</ele>
        <time>2023-05-17T10:45:09Z</time>
      </trkpt>
      <trkpt lat="44.54204" lon="1.44369">
        <ele>285.65</ele>
        <time>2023-05-17T10:45:19Z</time>
      </trkpt>
      <trkpt lat="44.54223" lon="1.44349">
        <ele>282.77</ele>
        <time>2023-05-17T10:45:38Z</time>
      </trkpt>
      <trkpt lat="44.54244" lon="1.44331">
        <ele>279.88</ele>
        <time>2023-05-17T10:45:57Z</time>
      </trkpt>
      <trkpt lat="44.54293" lon="1.44313">
        <ele>270.75</ele>
        <time>2023-05-17T10:46:46Z</time>
      </trkpt>
      <trkpt lat="44.54307" lon="1.44311">
        <ele>267.86</ele>
        <time>2023-05-17T10:46:59Z</time>
      </trkpt>
      <trkpt lat="44.54333" lon="1.44303">
        <ele>263.54</ele>
        <time>2023-05-17T10:47:24Z</time>
      </trkpt>
      <trkpt lat="44.54356" lon="1.4429">
        <ele>259.69</ele>
        <time>2023-05-17T10:47:48Z</time>
      </trkpt>
      <trkpt lat="44.54367" lon="1.44282">
        <ele>258.25</ele>
        <time>2023-05-17T10:48:00Z</time>
      </trkpt>
      <trkpt lat="44.54379" lon="1.44279">
        <ele>255.37</ele>
        <time>2023-05-17T10:48:26Z</time>
      </trkpt>
      <trkpt lat="44.54387" lon="1.44288">
        <ele>254.41</ele>
        <time>2023-05-17T10:48:35Z</time>
      </trkpt>
      <trkpt lat="44.54406" lon="1.44285">
        <ele>251.04</ele>
        <time>2023-05-17T10:48:51Z</time>
      </trkpt>
      <trkpt lat="44.54454" lon="1.44282">
        <ele>242.87</ele>
        <time>2023-05-17T10:49:34Z</time>
      </trkpt>
      <trkpt lat="44.54477" lon="1.44285">
        <ele>239.51</ele>
        <time>2023-05-17T10:49:52Z</time>
      </trkpt>
      <trkpt lat="44.545" lon="1.44281">
        <ele>235.18</ele>
        <time>2023-05-17T10:50:12Z</time>
      </trkpt>
      <trkpt lat="44.54512" lon="1.44276">
        <ele>233.26</ele>
        <time>2023-05-17T10:50:22Z</time>
      </trkpt>
      <trkpt lat="44.54558" lon="1.44268">
        <ele>227.01</ele>
        <time>2023-05-17T10:51:02Z</time>
      </trkpt>
      <trkpt lat="44.5457" lon="1.44262">
        <ele>225.57</ele>
        <time>2023-05-17T10:51:11Z</time>
      </trkpt>
      <trkpt lat="44.54579" lon="1.44253">
        <ele>224.12</ele>
        <time>2023-05-17T10:51:21Z</time>
      </trkpt>
      <trkpt lat="44.54592" lon="1.44225">
        <ele>221.24</ele>
        <time>2023-05-17T10:51:38Z</time>
      </trkpt>
      <trkpt lat="44.54601" lon="1.44215">
        <ele>219.32</ele>
        <time>2023-05-17T10:51:47Z</time>
      </trkpt>
      <trkpt lat="44.54611" lon="1.44208">
        <ele>217.88</ele>
        <time>2023-05-17T10:51:56Z</time>
      </trkpt>
      <trkpt lat="44.54623" lon="1.44207">
        <ele>216.43</ele>
        <time>2023-05-17T10:52:06Z</time>
      </trkpt>
      <trkpt lat="44.54659" lon="1.44197">
        <ele>214.51</ele>
        <time>2023-05-17T10:52:34Z</time>
      </trkpt>
      <trkpt lat="44.54669" lon="1.44197">
        <ele>214.51</ele>
        <time>2023-05-17T10:52:41Z</time>
      </trkpt>
      <trkpt lat="44.54688" lon="1.4419">
        <ele>214.51</ele>
        <time>2023-05-17T10:52:55Z</time>
      </trkpt>
      <trkpt lat="44.54695" lon="1.44181">
        <ele>215.95</ele>
        <time>2023-05-17T10:53:04Z</time>
      </trkpt>
      <trkpt lat="44.547" lon="1.44154">
        <ele>215.95</ele>
        <time>2023-05-17T10:53:24Z</time>
      </trkpt>
      <trkpt lat="44.54717" lon="1.44098">
        <ele>212.59</ele>
        <time>2023-05-17T10:53:57Z</time>
      </trkpt>
      <trkpt lat="44.54737" lon="1.44044">
        <ele>211.63</ele>
        <time>2023-05-17T10:54:26Z</time>
      </trkpt>
      <trkpt lat="44.54786" lon="1.43944">
        <ele>208.26</ele>
        <time>2023-05-17T10:55:25Z</time>
      </trkpt>
      <trkpt lat="44.54801" lon="1.43921">
        <ele>207.3</ele>
        <time>2023-05-17T10:55:40Z</time>
      </trkpt>
      <trkpt lat="44.5482" lon="1.43904">
        <ele>205.86</ele>
        <time>2023-05-17T10:55:56Z</time>
      </trkpt>
      <trkpt lat="44.54831" lon="1.43907">
        <ele>206.34</ele>
        <time>2023-05-17T10:56:05Z</time>
      </trkpt>
      <trkpt lat="44.54839" lon="1.43915">
        <ele>206.82</ele>
        <time>2023-05-17T10:56:13Z</time>
      </trkpt>
      <trkpt lat="44.54853" lon="1.43933">
        <ele>207.78</ele>
        <time>2023-05-17T10:56:27Z</time>
      </trkpt>
      <trkpt lat="44.54871" lon="1.43947">
        <ele>208.74</ele>
        <time>2023-05-17T10:56:42Z</time>
      </trkpt>
      <trkpt lat="44.54924" lon="1.43997">
        <ele>210.67</ele>
        <time>2023-05-17T10:57:28Z</time>
      </trkpt>
      <trkpt lat="44.54944" lon="1.44013">
        <ele>212.59</ele>
        <time>2023-05-17T10:57:43Z</time>
      </trkpt>
      <trkpt lat="44.54952" lon="1.44022">
        <ele>213.55</ele>
        <time>2023-05-17T10:57:50Z</time>
      </trkpt>
      <trkpt lat="44.54962" lon="1.4403">
        <ele>214.03</ele>
        <time>2023-05-17T10:57:58Z</time>
      </trkpt>
      <trkpt lat="44.55011" lon="1.44085">
        <ele>216.43</ele>
        <time>2023-05-17T10:58:42Z</time>
      </trkpt>
      <trkpt lat="44.5508" lon="1.44145">
        <ele>218.84</ele>
        <time>2023-05-17T10:59:38Z</time>
      </trkpt>
      <trkpt lat="44.55105" lon="1.44163">
        <ele>216.91</ele>
        <time>2023-05-17T10:59:59Z</time>
      </trkpt>
      <trkpt lat="44.55113" lon="1.44174">
        <ele>218.36</ele>
        <time>2023-05-17T11:00:07Z</time>
      </trkpt>
      <trkpt lat="44.55124" lon="1.442">
        <ele>218.84</ele>
        <time>2023-05-17T11:00:22Z</time>
      </trkpt>
      <trkpt lat="44.55137" lon="1.44238">
        <ele>218.84</ele>
        <time>2023-05-17T11:00:45Z</time>
      </trkpt>
      <trkpt lat="44.55179" lon="1.44302">
        <ele>218.84</ele>
        <time>2023-05-17T11:01:30Z</time>
      </trkpt>
      <trkpt lat="44.55196" lon="1.44323">
        <ele>218.84</ele>
        <time>2023-05-17T11:01:45Z</time>
      </trkpt>
      <trkpt lat="44.55251" lon="1.44403">
        <ele>216.91</ele>
        <time>2023-05-17T11:02:41Z</time>
      </trkpt>
      <trkpt lat="44.55272" lon="1.4442">
        <ele>216.43</ele>
        <time>2023-05-17T11:02:58Z</time>
      </trkpt>
      <trkpt lat="44.55289" lon="1.44431">
        <ele>215.95</ele>
        <time>2023-05-17T11:03:13Z</time>
      </trkpt>
      <trkpt lat="44.55308" lon="1.44441">
        <ele>215.47</ele>
        <time>2023-05-17T11:03:27Z</time>
      </trkpt>
      <trkpt lat="44.55324" lon="1.44454">
        <ele>217.4</ele>
        <time>2023-05-17T11:03:42Z</time>
      </trkpt>
      <trkpt lat="44.55339" lon="1.44471">
        <ele>219.32</ele>
        <time>2023-05-17T11:03:56Z</time>
      </trkpt>
      <trkpt lat="44.55365" lon="1.44508">
        <ele>221.24</ele>
        <time>2023-05-17T11:04:26Z</time>
      </trkpt>
      <trkpt lat="44.5538" lon="1.44525">
        <ele>223.64</ele>
        <time>2023-05-17T11:04:42Z</time>
      </trkpt>
      <trkpt lat="44.55388" lon="1.44531">
        <ele>224.12</ele>
        <time>2023-05-17T11:04:50Z</time>
      </trkpt>
      <trkpt lat="44.55407" lon="1.44539">
        <ele>225.09</ele>
        <time>2023-05-17T11:05:06Z</time>
      </trkpt>
      <trkpt lat="44.55427" lon="1.44543">
        <ele>225.57</ele>
        <time>2023-05-17T11:05:22Z</time>
      </trkpt>
      <trkpt lat="44.55437" lon="1.4455">
        <ele>226.05</ele>
        <time>2023-05-17T11:05:30Z</time>
      </trkpt>
      <trkpt lat="44.55448" lon="1.44572">
        <ele>228.45</ele>
        <time>2023-05-17T11:05:47Z</time>
      </trkpt>
      <trkpt lat="44.55457" lon="1.44601">
        <ele>231.33</ele>
        <time>2023-05-17T11:06:11Z</time>
      </trkpt>
      <trkpt lat="44.55466" lon="1.4461">
        <ele>230.85</ele>
        <time>2023-05-17T11:11:45Z</time>
      </trkpt>
      <trkpt lat="44.55471" lon="1.44615">
        <ele>236.14</ele>
        <time>2023-05-17T11:32:44Z</time>
      </trkpt>
      <trkpt lat="44.55462" lon="1.4461">
        <ele>236.62</ele>
        <time>2023-05-17T11:33:10Z</time>
      </trkpt>
      <trkpt lat="44.55457" lon="1.44603">
        <ele>236.62</ele>
        <time>2023-05-17T11:33:21Z</time>
      </trkpt>
      <trkpt lat="44.55461" lon="1.44591">
        <ele>233.74</ele>
        <time>2023-05-17T11:33:47Z</time>
      </trkpt>
      <trkpt lat="44.55469" lon="1.44598">
        <ele>233.74</ele>
        <time>2023-05-17T11:34:01Z</time>
      </trkpt>
      <trkpt lat="44.55472" lon="1.44593">
        <ele>232.78</ele>
        <time>2023-05-17T11:34:15Z</time>
      </trkpt>
      <trkpt lat="44.55466" lon="1.44582">
        <ele>232.78</ele>
        <time>2023-05-17T11:34:29Z</time>
      </trkpt>
      <trkpt lat="44.55456" lon="1.4457">
        <ele>232.3</ele>
        <time>2023-05-17T11:35:08Z</time>
      </trkpt>
      <trkpt lat="44.55456" lon="1.44572">
        <ele>231.33</ele>
        <time>2023-05-17T11:36:49Z</time>
      </trkpt>
      <trkpt lat="44.55431" lon="1.44547">
        <ele>230.85</ele>
        <time>2023-05-17T11:37:22Z</time>
      </trkpt>
      <trkpt lat="44.55412" lon="1.44544">
        <ele>230.37</ele>
        <time>2023-05-17T11:37:40Z</time>
      </trkpt>
      <trkpt lat="44.55414" lon="1.44531">
        <ele>227.97</ele>
        <time>2023-05-17T11:37:49Z</time>
      </trkpt>
      <trkpt lat="44.55421" lon="1.44518">
        <ele>226.05</ele>
        <time>2023-05-17T11:37:59Z</time>
      </trkpt>
      <trkpt lat="44.5543" lon="1.4451">
        <ele>224.61</ele>
        <time>2023-05-17T11:38:09Z</time>
      </trkpt>
      <trkpt lat="44.55432" lon="1.44497">
        <ele>223.16</ele>
        <time>2023-05-17T11:38:18Z</time>
      </trkpt>
      <trkpt lat="44.55431" lon="1.44489">
        <ele>221.72</ele>
        <time>2023-05-17T11:38:29Z</time>
      </trkpt>
      <trkpt lat="44.55441" lon="1.44484">
        <ele>221.72</ele>
        <time>2023-05-17T11:38:39Z</time>
      </trkpt>
      <trkpt lat="44.55461" lon="1.44481">
        <ele>221.72</ele>
        <time>2023-05-17T11:38:56Z</time>
      </trkpt>
      <trkpt lat="44.55472" lon="1.44477">
        <ele>221.72</ele>
        <time>2023-05-17T11:39:05Z</time>
      </trkpt>
      <trkpt lat="44.55483" lon="1.44477">
        <ele>221.24</ele>
        <time>2023-05-17T11:39:14Z</time>
      </trkpt>
      <trkpt lat="44.55505" lon="1.4447">
        <ele>223.16</ele>
        <time>2023-05-17T11:39:32Z</time>
      </trkpt>
      <trkpt lat="44.55526" lon="1.44458">
        <ele>223.16</ele>
        <time>2023-05-17T11:39:51Z</time>
      </trkpt>
      <trkpt lat="44.55544" lon="1.44444">
        <ele>223.16</ele>
        <time>2023-05-17T11:40:12Z</time>
      </trkpt>
      <trkpt lat="44.55553" lon="1.44439">
        <ele>224.12</ele>
        <time>2023-05-17T11:40:22Z</time>
      </trkpt>
      <trkpt lat="44.55557" lon="1.44433">
        <ele>227.01</ele>
        <time>2023-05-17T11:40:56Z</time>
      </trkpt>
      <trkpt lat="44.55555" lon="1.44422">
        <ele>224.12</ele>
        <time>2023-05-17T11:41:28Z</time>
      </trkpt>
      <trkpt lat="44.55558" lon="1.44431">
        <ele>225.09</ele>
        <time>2023-05-17T11:42:27Z</time>
      </trkpt>
      <trkpt lat="44.55575" lon="1.44421">
        <ele>226.05</ele>
        <time>2023-05-17T11:42:51Z</time>
      </trkpt>
      <trkpt lat="44.55591" lon="1.44408">
        <ele>227.97</ele>
        <time>2023-05-17T11:43:10Z</time>
      </trkpt>
      <trkpt lat="44.55654" lon="1.44323">
        <ele>233.26</ele>
        <time>2023-05-17T11:44:27Z</time>
      </trkpt>
      <trkpt lat="44.55667" lon="1.44299">
        <ele>234.22</ele>
        <time>2023-05-17T11:44:44Z</time>
      </trkpt>
      <trkpt lat="44.55681" lon="1.44278">
        <ele>234.7</ele>
        <time>2023-05-17T11:45:00Z</time>
      </trkpt>
      <trkpt lat="44.55711" lon="1.44225">
        <ele>236.14</ele>
        <time>2023-05-17T11:45:35Z</time>
      </trkpt>
      <trkpt lat="44.55719" lon="1.44214">
        <ele>236.62</ele>
        <time>2023-05-17T11:45:44Z</time>
      </trkpt>
      <trkpt lat="44.55726" lon="1.442">
        <ele>237.1</ele>
        <time>2023-05-17T11:45:53Z</time>
      </trkpt>
      <trkpt lat="44.5574" lon="1.44178">
        <ele>238.06</ele>
        <time>2023-05-17T11:46:09Z</time>
      </trkpt>
      <trkpt lat="44.55752" lon="1.44152">
        <ele>238.06</ele>
        <time>2023-05-17T11:46:26Z</time>
      </trkpt>
      <trkpt lat="44.55758" lon="1.44135">
        <ele>238.54</ele>
        <time>2023-05-17T11:46:36Z</time>
      </trkpt>
      <trkpt lat="44.55762" lon="1.44118">
        <ele>239.02</ele>
        <time>2023-05-17T11:46:46Z</time>
      </trkpt>
      <trkpt lat="44.55775" lon="1.44089">
        <ele>239.51</ele>
        <time>2023-05-17T11:47:04Z</time>
      </trkpt>
      <trkpt lat="44.55803" lon="1.4406">
        <ele>241.43</ele>
        <time>2023-05-17T11:47:31Z</time>
      </trkpt>
      <trkpt lat="44.55811" lon="1.44048">
        <ele>242.39</ele>
        <time>2023-05-17T11:47:42Z</time>
      </trkpt>
      <trkpt lat="44.55823" lon="1.4402">
        <ele>243.35</ele>
        <time>2023-05-17T11:48:04Z</time>
      </trkpt>
      <trkpt lat="44.55832" lon="1.43988">
        <ele>241.91</ele>
        <time>2023-05-17T11:48:22Z</time>
      </trkpt>
      <trkpt lat="44.55842" lon="1.43963">
        <ele>241.43</ele>
        <time>2023-05-17T11:48:40Z</time>
      </trkpt>
      <trkpt lat="44.55875" lon="1.43911">
        <ele>243.83</ele>
        <time>2023-05-17T11:49:22Z</time>
      </trkpt>
      <trkpt lat="44.55883" lon="1.43896">
        <ele>244.31</ele>
        <time>2023-05-17T11:49:32Z</time>
      </trkpt>
      <trkpt lat="44.55893" lon="1.43883">
        <ele>244.31</ele>
        <time>2023-05-17T11:49:43Z</time>
      </trkpt>
      <trkpt lat="44.55909" lon="1.43855">
        <ele>244.79</ele>
        <time>2023-05-17T11:50:04Z</time>
      </trkpt>
      <trkpt lat="44.55921" lon="1.43826">
        <ele>245.27</ele>
        <time>2023-05-17T11:50:24Z</time>
      </trkpt>
      <trkpt lat="44.55936" lon="1.43772">
        <ele>248.16</ele>
        <time>2023-05-17T11:50:59Z</time>
      </trkpt>
      <trkpt lat="44.55941" lon="1.43735">
        <ele>249.6</ele>
        <time>2023-05-17T11:51:23Z</time>
      </trkpt>
      <trkpt lat="44.5595" lon="1.43699">
        <ele>251.04</ele>
        <time>2023-05-17T11:51:45Z</time>
      </trkpt>
      <trkpt lat="44.55958" lon="1.43682">
        <ele>251.52</ele>
        <time>2023-05-17T11:51:57Z</time>
      </trkpt>
      <trkpt lat="44.55966" lon="1.43669">
        <ele>252.48</ele>
        <time>2023-05-17T11:52:07Z</time>
      </trkpt>
      <trkpt lat="44.55975" lon="1.43658">
        <ele>252.96</ele>
        <time>2023-05-17T11:52:17Z</time>
      </trkpt>
      <trkpt lat="44.55982" lon="1.43644">
        <ele>254.41</ele>
        <time>2023-05-17T11:52:49Z</time>
      </trkpt>
      <trkpt lat="44.55989" lon="1.43635">
        <ele>255.37</ele>
        <time>2023-05-17T11:53:30Z</time>
      </trkpt>
      <trkpt lat="44.55996" lon="1.43621">
        <ele>257.29</ele>
        <time>2023-05-17T11:53:42Z</time>
      </trkpt>
      <trkpt lat="44.55995" lon="1.43592">
        <ele>259.21</ele>
        <time>2023-05-17T11:54:02Z</time>
      </trkpt>
      <trkpt lat="44.5599" lon="1.43577">
        <ele>259.21</ele>
        <time>2023-05-17T11:54:12Z</time>
      </trkpt>
      <trkpt lat="44.55981" lon="1.43569">
        <ele>259.21</ele>
        <time>2023-05-17T11:54:21Z</time>
      </trkpt>
      <trkpt lat="44.55969" lon="1.43539">
        <ele>260.17</ele>
        <time>2023-05-17T11:54:43Z</time>
      </trkpt>
      <trkpt lat="44.55968" lon="1.43521">
        <ele>261.14</ele>
        <time>2023-05-17T11:54:55Z</time>
      </trkpt>
      <trkpt lat="44.55969" lon="1.4348">
        <ele>263.06</ele>
        <time>2023-05-17T11:55:22Z</time>
      </trkpt>
      <trkpt lat="44.55975" lon="1.43441">
        <ele>266.42</ele>
        <time>2023-05-17T11:55:48Z</time>
      </trkpt>
      <trkpt lat="44.5598" lon="1.43421">
        <ele>267.86</ele>
        <time>2023-05-17T11:56:01Z</time>
      </trkpt>
      <trkpt lat="44.56013" lon="1.4338">
        <ele>271.71</ele>
        <time>2023-05-17T11:56:42Z</time>
      </trkpt>
      <trkpt lat="44.56027" lon="1.43373">
        <ele>272.67</ele>
        <time>2023-05-17T11:56:56Z</time>
      </trkpt>
      <trkpt lat="44.56039" lon="1.4336">
        <ele>275.07</ele>
        <time>2023-05-17T11:57:09Z</time>
      </trkpt>
      <trkpt lat="44.56042" lon="1.43342">
        <ele>277.48</ele>
        <time>2023-05-17T11:57:25Z</time>
      </trkpt>
      <trkpt lat="44.56042" lon="1.4332">
        <ele>280.36</ele>
        <time>2023-05-17T11:57:43Z</time>
      </trkpt>
      <trkpt lat="44.56051" lon="1.43279">
        <ele>285.17</ele>
        <time>2023-05-17T11:58:19Z</time>
      </trkpt>
      <trkpt lat="44.56062" lon="1.43265">
        <ele>288.53</ele>
        <time>2023-05-17T11:58:40Z</time>
      </trkpt>
      <trkpt lat="44.56067" lon="1.43261">
        <ele>290.94</ele>
        <time>2023-05-17T12:00:20Z</time>
      </trkpt>
      <trkpt lat="44.56054" lon="1.43227">
        <ele>295.74</ele>
        <time>2023-05-17T12:00:50Z</time>
      </trkpt>
      <trkpt lat="44.56042" lon="1.43221">
        <ele>297.67</ele>
        <time>2023-05-17T12:01:08Z</time>
      </trkpt>
      <trkpt lat="44.56035" lon="1.43204">
        <ele>300.07</ele>
        <time>2023-05-17T12:01:25Z</time>
      </trkpt>
      <trkpt lat="44.56037" lon="1.43182">
        <ele>302.95</ele>
        <time>2023-05-17T12:01:42Z</time>
      </trkpt>
      <trkpt lat="44.56044" lon="1.43149">
        <ele>306.8</ele>
        <time>2023-05-17T12:02:13Z</time>
      </trkpt>
      <trkpt lat="44.56052" lon="1.4312">
        <ele>309.68</ele>
        <time>2023-05-17T12:02:41Z</time>
      </trkpt>
      <trkpt lat="44.56065" lon="1.43105">
        <ele>312.09</ele>
        <time>2023-05-17T12:03:01Z</time>
      </trkpt>
      <trkpt lat="44.56088" lon="1.43096">
        <ele>313.53</ele>
        <time>2023-05-17T12:03:25Z</time>
      </trkpt>
      <trkpt lat="44.56118" lon="1.43105">
        <ele>314.97</ele>
        <time>2023-05-17T12:03:51Z</time>
      </trkpt>
      <trkpt lat="44.5613" lon="1.43112">
        <ele>315.45</ele>
        <time>2023-05-17T12:04:04Z</time>
      </trkpt>
      <trkpt lat="44.5614" lon="1.4312">
        <ele>315.45</ele>
        <time>2023-05-17T12:04:15Z</time>
      </trkpt>
      <trkpt lat="44.5616" lon="1.43141">
        <ele>315.93</ele>
        <time>2023-05-17T12:04:39Z</time>
      </trkpt>
      <trkpt lat="44.56178" lon="1.4318">
        <ele>314.97</ele>
        <time>2023-05-17T12:05:04Z</time>
      </trkpt>
      <trkpt lat="44.56189" lon="1.43198">
        <ele>315.93</ele>
        <time>2023-05-17T12:05:18Z</time>
      </trkpt>
      <trkpt lat="44.56194" lon="1.43219">
        <ele>316.89</ele>
        <time>2023-05-17T12:05:32Z</time>
      </trkpt>
      <trkpt lat="44.56203" lon="1.4324">
        <ele>318.33</ele>
        <time>2023-05-17T12:05:46Z</time>
      </trkpt>
      <trkpt lat="44.56202" lon="1.43258">
        <ele>319.78</ele>
        <time>2023-05-17T12:05:58Z</time>
      </trkpt>
      <trkpt lat="44.56206" lon="1.43292">
        <ele>323.62</ele>
        <time>2023-05-17T12:06:27Z</time>
      </trkpt>
      <trkpt lat="44.56213" lon="1.43315">
        <ele>325.54</ele>
        <time>2023-05-17T12:06:43Z</time>
      </trkpt>
      <trkpt lat="44.56223" lon="1.43331">
        <ele>327.47</ele>
        <time>2023-05-17T12:06:57Z</time>
      </trkpt>
      <trkpt lat="44.56235" lon="1.43365">
        <ele>329.87</ele>
        <time>2023-05-17T12:07:25Z</time>
      </trkpt>
      <trkpt lat="44.56243" lon="1.43382">
        <ele>331.31</ele>
        <time>2023-05-17T12:07:37Z</time>
      </trkpt>
      <trkpt lat="44.56252" lon="1.43412">
        <ele>332.27</ele>
        <time>2023-05-17T12:08:06Z</time>
      </trkpt>
      <trkpt lat="44.56254" lon="1.43425">
        <ele>332.75</ele>
        <time>2023-05-17T12:08:16Z</time>
      </trkpt>
      <trkpt lat="44.56253" lon="1.43453">
        <ele>333.71</ele>
        <time>2023-05-17T12:08:32Z</time>
      </trkpt>
      <trkpt lat="44.56255" lon="1.43494">
        <ele>334.68</ele>
        <time>2023-05-17T12:08:58Z</time>
      </trkpt>
      <trkpt lat="44.56272" lon="1.43512">
        <ele>335.64</ele>
        <time>2023-05-17T12:09:22Z</time>
      </trkpt>
      <trkpt lat="44.5629" lon="1.43534">
        <ele>336.12</ele>
        <time>2023-05-17T12:09:51Z</time>
      </trkpt>
      <trkpt lat="44.56296" lon="1.43548">
        <ele>336.6</ele>
        <time>2023-05-17T12:10:03Z</time>
      </trkpt>
      <trkpt lat="44.56303" lon="1.43662">
        <ele>337.56</ele>
        <time>2023-05-17T12:11:15Z</time>
      </trkpt>
      <trkpt lat="44.56301" lon="1.43679">
        <ele>337.56</ele>
        <time>2023-05-17T12:11:25Z</time>
      </trkpt>
      <trkpt lat="44.56297" lon="1.43695">
        <ele>337.56</ele>
        <time>2023-05-17T12:11:35Z</time>
      </trkpt>
      <trkpt lat="44.56298" lon="1.43742">
        <ele>335.64</ele>
        <time>2023-05-17T12:12:11Z</time>
      </trkpt>
      <trkpt lat="44.56303" lon="1.4377">
        <ele>334.2</ele>
        <time>2023-05-17T12:12:29Z</time>
      </trkpt>
      <trkpt lat="44.56314" lon="1.43814">
        <ele>330.35</ele>
        <time>2023-05-17T12:12:54Z</time>
      </trkpt>
      <trkpt lat="44.56326" lon="1.43847">
        <ele>328.43</ele>
        <time>2023-05-17T12:13:13Z</time>
      </trkpt>
      <trkpt lat="44.56329" lon="1.43863">
        <ele>326.99</ele>
        <time>2023-05-17T12:13:22Z</time>
      </trkpt>
      <trkpt lat="44.56351" lon="1.43925">
        <ele>324.1</ele>
        <time>2023-05-17T12:14:04Z</time>
      </trkpt>
      <trkpt lat="44.56359" lon="1.4394">
        <ele>324.1</ele>
        <time>2023-05-17T12:14:14Z</time>
      </trkpt>
      <trkpt lat="44.56378" lon="1.43965">
        <ele>323.62</ele>
        <time>2023-05-17T12:14:37Z</time>
      </trkpt>
      <trkpt lat="44.56389" lon="1.4399">
        <ele>325.06</ele>
        <time>2023-05-17T12:14:56Z</time>
      </trkpt>
      <trkpt lat="44.56399" lon="1.44018">
        <ele>326.99</ele>
        <time>2023-05-17T12:15:16Z</time>
      </trkpt>
      <trkpt lat="44.56397" lon="1.44075">
        <ele>327.47</ele>
        <time>2023-05-17T12:15:50Z</time>
      </trkpt>
      <trkpt lat="44.56399" lon="1.44104">
        <ele>326.99</ele>
        <time>2023-05-17T12:16:07Z</time>
      </trkpt>
      <trkpt lat="44.56404" lon="1.44133">
        <ele>325.06</ele>
        <time>2023-05-17T12:16:24Z</time>
      </trkpt>
      <trkpt lat="44.56411" lon="1.44156">
        <ele>324.58</ele>
        <time>2023-05-17T12:16:40Z</time>
      </trkpt>
      <trkpt lat="44.56423" lon="1.44171">
        <ele>324.1</ele>
        <time>2023-05-17T12:16:59Z</time>
      </trkpt>
      <trkpt lat="44.56435" lon="1.44172">
        <ele>323.62</ele>
        <time>2023-05-17T12:17:09Z</time>
      </trkpt>
      <trkpt lat="44.56455" lon="1.44162">
        <ele>325.54</ele>
        <time>2023-05-17T12:17:30Z</time>
      </trkpt>
      <trkpt lat="44.56519" lon="1.44119">
        <ele>329.39</ele>
        <time>2023-05-17T12:18:30Z</time>
      </trkpt>
      <trkpt lat="44.5654" lon="1.44098">
        <ele>330.35</ele>
        <time>2023-05-17T12:18:49Z</time>
      </trkpt>
      <trkpt lat="44.56573" lon="1.4404">
        <ele>329.39</ele>
        <time>2023-05-17T12:19:32Z</time>
      </trkpt>
      <trkpt lat="44.56588" lon="1.44004">
        <ele>329.39</ele>
        <time>2023-05-17T12:19:55Z</time>
      </trkpt>
      <trkpt lat="44.56598" lon="1.43988">
        <ele>328.91</ele>
        <time>2023-05-17T12:20:06Z</time>
      </trkpt>
      <trkpt lat="44.56609" lon="1.43975">
        <ele>328.91</ele>
        <time>2023-05-17T12:20:16Z</time>
      </trkpt>
      <trkpt lat="44.56636" lon="1.4395">
        <ele>327.95</ele>
        <time>2023-05-17T12:20:37Z</time>
      </trkpt>
      <trkpt lat="44.56649" lon="1.4394">
        <ele>327.95</ele>
        <time>2023-05-17T12:20:47Z</time>
      </trkpt>
      <trkpt lat="44.56662" lon="1.43927">
        <ele>329.87</ele>
        <time>2023-05-17T12:20:58Z</time>
      </trkpt>
      <trkpt lat="44.56672" lon="1.43914">
        <ele>329.87</ele>
        <time>2023-05-17T12:21:08Z</time>
      </trkpt>
      <trkpt lat="44.56684" lon="1.43904">
        <ele>329.87</ele>
        <time>2023-05-17T12:21:17Z</time>
      </trkpt>
      <trkpt lat="44.56736" lon="1.43843">
        <ele>329.87</ele>
        <time>2023-05-17T12:22:06Z</time>
      </trkpt>
      <trkpt lat="44.56746" lon="1.43835">
        <ele>330.35</ele>
        <time>2023-05-17T12:22:14Z</time>
      </trkpt>
      <trkpt lat="44.56762" lon="1.43816">
        <ele>329.87</ele>
        <time>2023-05-17T12:22:30Z</time>
      </trkpt>
      <trkpt lat="44.5677" lon="1.43809">
        <ele>330.35</ele>
        <time>2023-05-17T12:22:38Z</time>
      </trkpt>
      <trkpt lat="44.5678" lon="1.43811">
        <ele>330.83</ele>
        <time>2023-05-17T12:22:47Z</time>
      </trkpt>
      <trkpt lat="44.56798" lon="1.43825">
        <ele>328.91</ele>
        <time>2023-05-17T12:23:02Z</time>
      </trkpt>
      <trkpt lat="44.56815" lon="1.43836">
        <ele>328.91</ele>
        <time>2023-05-17T12:23:16Z</time>
      </trkpt>
      <trkpt lat="44.56843" lon="1.43849">
        <ele>328.91</ele>
        <time>2023-05-17T12:23:38Z</time>
      </trkpt>
      <trkpt lat="44.56851" lon="1.43856">
        <ele>328.91</ele>
        <time>2023-05-17T12:23:45Z</time>
      </trkpt>
      <trkpt lat="44.56861" lon="1.43861">
        <ele>328.91</ele>
        <time>2023-05-17T12:23:53Z</time>
      </trkpt>
      <trkpt lat="44.56877" lon="1.43875">
        <ele>328.91</ele>
        <time>2023-05-17T12:24:09Z</time>
      </trkpt>
      <trkpt lat="44.56885" lon="1.43884">
        <ele>328.91</ele>
        <time>2023-05-17T12:24:19Z</time>
      </trkpt>
      <trkpt lat="44.56894" lon="1.4389">
        <ele>330.35</ele>
        <time>2023-05-17T12:24:28Z</time>
      </trkpt>
      <trkpt lat="44.56927" lon="1.43898">
        <ele>327.47</ele>
        <time>2023-05-17T12:24:55Z</time>
      </trkpt>
      <trkpt lat="44.56938" lon="1.43898">
        <ele>326.02</ele>
        <time>2023-05-17T12:25:03Z</time>
      </trkpt>
      <trkpt lat="44.56949" lon="1.439">
        <ele>325.54</ele>
        <time>2023-05-17T12:25:11Z</time>
      </trkpt>
      <trkpt lat="44.56972" lon="1.439">
        <ele>322.66</ele>
        <time>2023-05-17T12:25:28Z</time>
      </trkpt>
      <trkpt lat="44.57009" lon="1.43904">
        <ele>318.81</ele>
        <time>2023-05-17T12:25:56Z</time>
      </trkpt>
      <trkpt lat="44.57022" lon="1.43908">
        <ele>317.37</ele>
        <time>2023-05-17T12:26:05Z</time>
      </trkpt>
      <trkpt lat="44.57043" lon="1.4392">
        <ele>315.93</ele>
        <time>2023-05-17T12:26:20Z</time>
      </trkpt>
      <trkpt lat="44.57052" lon="1.43931">
        <ele>314.97</ele>
        <time>2023-05-17T12:26:29Z</time>
      </trkpt>
      <trkpt lat="44.5708" lon="1.4398">
        <ele>312.57</ele>
        <time>2023-05-17T12:27:05Z</time>
      </trkpt>
      <trkpt lat="44.57099" lon="1.43996">
        <ele>310.16</ele>
        <time>2023-05-17T12:27:23Z</time>
      </trkpt>
      <trkpt lat="44.57108" lon="1.44007">
        <ele>310.16</ele>
        <time>2023-05-17T12:27:32Z</time>
      </trkpt>
      <trkpt lat="44.57123" lon="1.44033">
        <ele>309.2</ele>
        <time>2023-05-17T12:27:50Z</time>
      </trkpt>
      <trkpt lat="44.57131" lon="1.44044">
        <ele>309.2</ele>
        <time>2023-05-17T12:27:59Z</time>
      </trkpt>
      <trkpt lat="44.57152" lon="1.44098">
        <ele>309.2</ele>
        <time>2023-05-17T12:28:39Z</time>
      </trkpt>
      <trkpt lat="44.57161" lon="1.4413">
        <ele>310.16</ele>
        <time>2023-05-17T12:29:12Z</time>
      </trkpt>
      <trkpt lat="44.5716" lon="1.44141">
        <ele>310.16</ele>
        <time>2023-05-17T12:29:31Z</time>
      </trkpt>
      <trkpt lat="44.57115" lon="1.44193">
        <ele>315.93</ele>
        <time>2023-05-17T12:30:27Z</time>
      </trkpt>
      <trkpt lat="44.57042" lon="1.44237">
        <ele>320.26</ele>
        <time>2023-05-17T12:31:24Z</time>
      </trkpt>
      <trkpt lat="44.57035" lon="1.4424">
        <ele>320.26</ele>
        <time>2023-05-17T12:31:31Z</time>
      </trkpt>
      <trkpt lat="44.57016" lon="1.44242">
        <ele>320.74</ele>
        <time>2023-05-17T12:31:51Z</time>
      </trkpt>
      <trkpt lat="44.56994" lon="1.44248">
        <ele>321.22</ele>
        <time>2023-05-17T12:32:07Z</time>
      </trkpt>
      <trkpt lat="44.56986" lon="1.44256">
        <ele>321.7</ele>
        <time>2023-05-17T12:32:16Z</time>
      </trkpt>
      <trkpt lat="44.56985" lon="1.44271">
        <ele>321.7</ele>
        <time>2023-05-17T12:32:24Z</time>
      </trkpt>
      <trkpt lat="44.56986" lon="1.44284">
        <ele>321.7</ele>
        <time>2023-05-17T12:32:30Z</time>
      </trkpt>
      <trkpt lat="44.56978" lon="1.44313">
        <ele>323.14</ele>
        <time>2023-05-17T12:32:47Z</time>
      </trkpt>
      <trkpt lat="44.56957" lon="1.44367">
        <ele>325.54</ele>
        <time>2023-05-17T12:33:19Z</time>
      </trkpt>
      <trkpt lat="44.56945" lon="1.44392">
        <ele>326.99</ele>
        <time>2023-05-17T12:33:36Z</time>
      </trkpt>
      <trkpt lat="44.56924" lon="1.4443">
        <ele>329.39</ele>
        <time>2023-05-17T12:34:03Z</time>
      </trkpt>
      <trkpt lat="44.5692" lon="1.44443">
        <ele>330.35</ele>
        <time>2023-05-17T12:34:10Z</time>
      </trkpt>
      <trkpt lat="44.56897" lon="1.44495">
        <ele>330.83</ele>
        <time>2023-05-17T12:34:43Z</time>
      </trkpt>
      <trkpt lat="44.56883" lon="1.44517">
        <ele>330.83</ele>
        <time>2023-05-17T12:34:59Z</time>
      </trkpt>
      <trkpt lat="44.56862" lon="1.44533">
        <ele>330.83</ele>
        <time>2023-05-17T12:35:16Z</time>
      </trkpt>
      <trkpt lat="44.5684" lon="1.44544">
        <ele>330.83</ele>
        <time>2023-05-17T12:35:31Z</time>
      </trkpt>
      <trkpt lat="44.5682" lon="1.44551">
        <ele>330.83</ele>
        <time>2023-05-17T12:35:46Z</time>
      </trkpt>
      <trkpt lat="44.56802" lon="1.44565">
        <ele>331.79</ele>
        <time>2023-05-17T12:36:02Z</time>
      </trkpt>
      <trkpt lat="44.56786" lon="1.4458">
        <ele>331.79</ele>
        <time>2023-05-17T12:36:18Z</time>
      </trkpt>
      <trkpt lat="44.56756" lon="1.4462">
        <ele>330.35</ele>
        <time>2023-05-17T12:36:47Z</time>
      </trkpt>
      <trkpt lat="44.56732" lon="1.4468">
        <ele>330.35</ele>
        <time>2023-05-17T12:37:27Z</time>
      </trkpt>
      <trkpt lat="44.56729" lon="1.44696">
        <ele>330.35</ele>
        <time>2023-05-17T12:37:37Z</time>
      </trkpt>
      <trkpt lat="44.56723" lon="1.44768">
        <ele>331.79</ele>
        <time>2023-05-17T12:38:21Z</time>
      </trkpt>
      <trkpt lat="44.5671" lon="1.44819">
        <ele>329.87</ele>
        <time>2023-05-17T12:38:53Z</time>
      </trkpt>
      <trkpt lat="44.56705" lon="1.44855">
        <ele>328.43</ele>
        <time>2023-05-17T12:39:12Z</time>
      </trkpt>
      <trkpt lat="44.56697" lon="1.4489">
        <ele>327.95</ele>
        <time>2023-05-17T12:39:30Z</time>
      </trkpt>
      <trkpt lat="44.5669" lon="1.44908">
        <ele>327.47</ele>
        <time>2023-05-17T12:39:41Z</time>
      </trkpt>
      <trkpt lat="44.56673" lon="1.44936">
        <ele>326.5</ele>
        <time>2023-05-17T12:40:02Z</time>
      </trkpt>
      <trkpt lat="44.56648" lon="1.45004">
        <ele>323.14</ele>
        <time>2023-05-17T12:40:51Z</time>
      </trkpt>
      <trkpt lat="44.56635" lon="1.45035">
        <ele>323.14</ele>
        <time>2023-05-17T12:41:12Z</time>
      </trkpt>
      <trkpt lat="44.56626" lon="1.45067">
        <ele>324.58</ele>
        <time>2023-05-17T12:41:42Z</time>
      </trkpt>
      <trkpt lat="44.56612" lon="1.45093">
        <ele>328.5</ele>
        <time>2023-05-17T12:42:05Z</time>
      </trkpt>
      <trkpt lat="44.56586" lon="1.45125">
        <ele>331.7</ele>
      </trkpt>
      <trkpt lat="44.56571" lon="1.45165">
        <ele>334.7</ele>
      </trkpt>
      <trkpt lat="44.56547" lon="1.45218">
        <ele>337.6</ele>
      </trkpt>
      <trkpt lat="44.5652" lon="1.45259">
        <ele>339.1</ele>
      </trkpt>
      <trkpt lat="44.56507" lon="1.45289">
        <ele>339.7</ele>
      </trkpt>
      <trkpt lat="44.56495" lon="1.45315">
        <ele>340</ele>
      </trkpt>
      <trkpt lat="44.56482" lon="1.45356">
        <ele>339.7</ele>
      </trkpt>
      <trkpt lat="44.5646" lon="1.45408">
        <ele>336.3</ele>
      </trkpt>
      <trkpt lat="44.56481" lon="1.45429">
        <ele>334.4</ele>
      </trkpt>
      <trkpt lat="44.56513" lon="1.45447">
        <ele>332.1</ele>
      </trkpt>
      <trkpt lat="44.56578" lon="1.45477">
        <ele>329</ele>
        <time>2023-05-17T12:42:40Z</time>
      </trkpt>
      <trkpt lat="44.5663" lon="1.45585">
        <ele>330</ele>
      </trkpt>
      <trkpt lat="44.56627" lon="1.45491">
        <ele>328.2</ele>
      </trkpt>
      <trkpt lat="44.5664" lon="1.45397">
        <ele>323.3</ele>
        <time>2023-05-17T12:43:04Z</time>
      </trkpt>
      <trkpt lat="44.56675" lon="1.45259">
        <ele>319.3</ele>
        <time>2023-05-17T12:43:30Z</time>
      </trkpt>
      <trkpt lat="44.56688" lon="1.45184">
        <ele>317</ele>
        <time>2023-05-17T12:43:45Z</time>
      </trkpt>
      <trkpt lat="44.56725" lon="1.45128">
        <ele>312.57</ele>
        <time>2023-05-17T12:44:21Z</time>
      </trkpt>
      <trkpt lat="44.56735" lon="1.45122">
        <ele>312.09</ele>
        <time>2023-05-17T12:44:32Z</time>
      </trkpt>
      <trkpt lat="44.56743" lon="1.4511">
        <ele>311.6</ele>
        <time>2023-05-17T12:44:42Z</time>
      </trkpt>
      <trkpt lat="44.56757" lon="1.4508">
        <ele>310.16</ele>
        <time>2023-05-17T12:45:00Z</time>
      </trkpt>
      <trkpt lat="44.56788" lon="1.45023">
        <ele>308.24</ele>
        <time>2023-05-17T12:45:38Z</time>
      </trkpt>
      <trkpt lat="44.56823" lon="1.44938">
        <ele>303.91</ele>
        <time>2023-05-17T12:46:26Z</time>
      </trkpt>
      <trkpt lat="44.56839" lon="1.44914">
        <ele>303.43</ele>
        <time>2023-05-17T12:46:42Z</time>
      </trkpt>
      <trkpt lat="44.56858" lon="1.44895">
        <ele>302.47</ele>
        <time>2023-05-17T12:46:59Z</time>
      </trkpt>
      <trkpt lat="44.56889" lon="1.44871">
        <ele>300.07</ele>
        <time>2023-05-17T12:47:26Z</time>
      </trkpt>
      <trkpt lat="44.56902" lon="1.44864">
        <ele>299.11</ele>
        <time>2023-05-17T12:47:35Z</time>
      </trkpt>
      <trkpt lat="44.56926" lon="1.44858">
        <ele>298.63</ele>
        <time>2023-05-17T12:47:50Z</time>
      </trkpt>
      <trkpt lat="44.56963" lon="1.44857">
        <ele>297.67</ele>
        <time>2023-05-17T12:48:16Z</time>
      </trkpt>
      <trkpt lat="44.56999" lon="1.44863">
        <ele>297.18</ele>
        <time>2023-05-17T12:48:53Z</time>
      </trkpt>
      <trkpt lat="44.57013" lon="1.44863">
        <ele>295.26</ele>
        <time>2023-05-17T12:49:04Z</time>
      </trkpt>
      <trkpt lat="44.57039" lon="1.44857">
        <ele>292.38</ele>
        <time>2023-05-17T12:49:22Z</time>
      </trkpt>
      <trkpt lat="44.57065" lon="1.44848">
        <ele>291.42</ele>
        <time>2023-05-17T12:49:38Z</time>
      </trkpt>
      <trkpt lat="44.57088" lon="1.44838">
        <ele>290.46</ele>
        <time>2023-05-17T12:49:54Z</time>
      </trkpt>
      <trkpt lat="44.57134" lon="1.44809">
        <ele>288.05</ele>
        <time>2023-05-17T12:50:28Z</time>
      </trkpt>
      <trkpt lat="44.57158" lon="1.44801">
        <ele>286.61</ele>
        <time>2023-05-17T12:50:45Z</time>
      </trkpt>
      <trkpt lat="44.57209" lon="1.44789">
        <ele>285.17</ele>
        <time>2023-05-17T12:51:22Z</time>
      </trkpt>
      <trkpt lat="44.57223" lon="1.44781">
        <ele>284.69</ele>
        <time>2023-05-17T12:51:33Z</time>
      </trkpt>
      <trkpt lat="44.57233" lon="1.44773">
        <ele>285.65</ele>
        <time>2023-05-17T12:51:42Z</time>
      </trkpt>
      <trkpt lat="44.57249" lon="1.44748">
        <ele>285.65</ele>
        <time>2023-05-17T12:52:00Z</time>
      </trkpt>
      <trkpt lat="44.57255" lon="1.44732">
        <ele>284.69</ele>
        <time>2023-05-17T12:52:09Z</time>
      </trkpt>
      <trkpt lat="44.57261" lon="1.44682">
        <ele>282.77</ele>
        <time>2023-05-17T12:52:36Z</time>
      </trkpt>
      <trkpt lat="44.57262" lon="1.44648">
        <ele>281.8</ele>
        <time>2023-05-17T12:52:54Z</time>
      </trkpt>
      <trkpt lat="44.57267" lon="1.4461">
        <ele>279.88</ele>
        <time>2023-05-17T12:53:16Z</time>
      </trkpt>
      <trkpt lat="44.57273" lon="1.4459">
        <ele>279.4</ele>
        <time>2023-05-17T12:53:27Z</time>
      </trkpt>
      <trkpt lat="44.57287" lon="1.44563">
        <ele>278.92</ele>
        <time>2023-05-17T12:53:43Z</time>
      </trkpt>
      <trkpt lat="44.57324" lon="1.44512">
        <ele>277.48</ele>
        <time>2023-05-17T12:54:20Z</time>
      </trkpt>
      <trkpt lat="44.57349" lon="1.44469">
        <ele>275.56</ele>
        <time>2023-05-17T12:54:44Z</time>
      </trkpt>
      <trkpt lat="44.57367" lon="1.44445">
        <ele>275.07</ele>
        <time>2023-05-17T12:55:00Z</time>
      </trkpt>
      <trkpt lat="44.57376" lon="1.4443">
        <ele>274.59</ele>
        <time>2023-05-17T12:55:10Z</time>
      </trkpt>
      <trkpt lat="44.57386" lon="1.44418">
        <ele>273.15</ele>
        <time>2023-05-17T12:55:19Z</time>
      </trkpt>
      <trkpt lat="44.57419" lon="1.44389">
        <ele>270.27</ele>
        <time>2023-05-17T12:55:45Z</time>
      </trkpt>
      <trkpt lat="44.57427" lon="1.44379">
        <ele>269.31</ele>
        <time>2023-05-17T12:55:52Z</time>
      </trkpt>
      <trkpt lat="44.57439" lon="1.44368">
        <ele>268.35</ele>
        <time>2023-05-17T12:56:03Z</time>
      </trkpt>
      <trkpt lat="44.57453" lon="1.44367">
        <ele>266.9</ele>
        <time>2023-05-17T12:56:15Z</time>
      </trkpt>
      <trkpt lat="44.57479" lon="1.44377">
        <ele>265.94</ele>
        <time>2023-05-17T12:56:29Z</time>
      </trkpt>
      <trkpt lat="44.57502" lon="1.44388">
        <ele>265.94</ele>
        <time>2023-05-17T12:56:48Z</time>
      </trkpt>
      <trkpt lat="44.57516" lon="1.44391">
        <ele>265.94</ele>
        <time>2023-05-17T12:56:57Z</time>
      </trkpt>
      <trkpt lat="44.57526" lon="1.44385">
        <ele>265.94</ele>
        <time>2023-05-17T12:57:05Z</time>
      </trkpt>
      <trkpt lat="44.57533" lon="1.44371">
        <ele>265.94</ele>
        <time>2023-05-17T12:57:14Z</time>
      </trkpt>
      <trkpt lat="44.57541" lon="1.44341">
        <ele>267.38</ele>
        <time>2023-05-17T12:57:32Z</time>
      </trkpt>
      <trkpt lat="44.57542" lon="1.44324">
        <ele>267.38</ele>
        <time>2023-05-17T12:57:40Z</time>
      </trkpt>
      <trkpt lat="44.57567" lon="1.44189">
        <ele>263.54</ele>
        <time>2023-05-17T12:58:46Z</time>
      </trkpt>
      <trkpt lat="44.57592" lon="1.44102">
        <ele>261.14</ele>
        <time>2023-05-17T12:59:30Z</time>
      </trkpt>
      <trkpt lat="44.57608" lon="1.44066">
        <ele>260.17</ele>
        <time>2023-05-17T12:59:52Z</time>
      </trkpt>
      <trkpt lat="44.57617" lon="1.44056">
        <ele>259.69</ele>
        <time>2023-05-17T13:00:00Z</time>
      </trkpt>
      <trkpt lat="44.57636" lon="1.44046">
        <ele>258.25</ele>
        <time>2023-05-17T13:00:14Z</time>
      </trkpt>
      <trkpt lat="44.57656" lon="1.44041">
        <ele>258.25</ele>
        <time>2023-05-17T13:00:28Z</time>
      </trkpt>
      <trkpt lat="44.57698" lon="1.44039">
        <ele>257.29</ele>
        <time>2023-05-17T13:00:57Z</time>
      </trkpt>
      <trkpt lat="44.57741" lon="1.4404">
        <ele>256.81</ele>
        <time>2023-05-17T13:01:26Z</time>
      </trkpt>
      <trkpt lat="44.57762" lon="1.44039">
        <ele>256.81</ele>
        <time>2023-05-17T13:01:41Z</time>
      </trkpt>
      <trkpt lat="44.57782" lon="1.44036">
        <ele>256.81</ele>
        <time>2023-05-17T13:01:55Z</time>
      </trkpt>
      <trkpt lat="44.57813" lon="1.44026">
        <ele>255.37</ele>
        <time>2023-05-17T13:02:17Z</time>
      </trkpt>
      <trkpt lat="44.57834" lon="1.44016">
        <ele>254.41</ele>
        <time>2023-05-17T13:02:34Z</time>
      </trkpt>
      <trkpt lat="44.57866" lon="1.43995">
        <ele>252.96</ele>
        <time>2023-05-17T13:02:58Z</time>
      </trkpt>
      <trkpt lat="44.57875" lon="1.43987">
        <ele>252.48</ele>
        <time>2023-05-17T13:03:06Z</time>
      </trkpt>
      <trkpt lat="44.57913" lon="1.4396">
        <ele>251.04</ele>
        <time>2023-05-17T13:03:38Z</time>
      </trkpt>
      <trkpt lat="44.57931" lon="1.43944">
        <ele>250.56</ele>
        <time>2023-05-17T13:03:55Z</time>
      </trkpt>
      <trkpt lat="44.57932" lon="1.43931">
        <ele>250.56</ele>
        <time>2023-05-17T13:04:03Z</time>
      </trkpt>
      <trkpt lat="44.57925" lon="1.43891">
        <ele>250.08</ele>
        <time>2023-05-17T13:04:26Z</time>
      </trkpt>
      <trkpt lat="44.57927" lon="1.43876">
        <ele>250.08</ele>
        <time>2023-05-17T13:04:39Z</time>
      </trkpt>
      <trkpt lat="44.57928" lon="1.43847">
        <ele>249.12</ele>
        <time>2023-05-17T13:04:57Z</time>
      </trkpt>
      <trkpt lat="44.57925" lon="1.43788">
        <ele>248.16</ele>
        <time>2023-05-17T13:05:29Z</time>
      </trkpt>
      <trkpt lat="44.57919" lon="1.43757">
        <ele>247.2</ele>
        <time>2023-05-17T13:05:49Z</time>
      </trkpt>
      <trkpt lat="44.57914" lon="1.43712">
        <ele>246.23</ele>
        <time>2023-05-17T13:06:13Z</time>
      </trkpt>
      <trkpt lat="44.57916" lon="1.43677">
        <ele>244.31</ele>
        <time>2023-05-17T13:06:32Z</time>
      </trkpt>
      <trkpt lat="44.57933" lon="1.43593">
        <ele>243.35</ele>
        <time>2023-05-17T13:07:17Z</time>
      </trkpt>
      <trkpt lat="44.57944" lon="1.43565">
        <ele>243.35</ele>
        <time>2023-05-17T13:07:34Z</time>
      </trkpt>
      <trkpt lat="44.57965" lon="1.43528">
        <ele>241.91</ele>
        <time>2023-05-17T13:08:06Z</time>
      </trkpt>
      <trkpt lat="44.58" lon="1.4349">
        <ele>240.95</ele>
        <time>2023-05-17T13:08:26Z</time>
      </trkpt>
      <trkpt lat="44.58008" lon="1.43474">
        <ele>240.47</ele>
        <time>2023-05-17T13:08:42Z</time>
      </trkpt>
      <trkpt lat="44.58035" lon="1.4343">
        <ele>239.99</ele>
        <time>2023-05-17T13:09:04Z</time>
      </trkpt>
      <trkpt lat="44.58042" lon="1.43416">
        <ele>239.99</ele>
        <time>2023-05-17T13:09:14Z</time>
      </trkpt>
      <trkpt lat="44.58061" lon="1.43388">
        <ele>238.54</ele>
        <time>2023-05-17T13:09:40Z</time>
      </trkpt>
      <trkpt lat="44.58081" lon="1.4337">
        <ele>238.54</ele>
        <time>2023-05-17T13:09:54Z</time>
      </trkpt>
      <trkpt lat="44.58091" lon="1.43364">
        <ele>238.54</ele>
        <time>2023-05-17T13:10:02Z</time>
      </trkpt>
      <trkpt lat="44.58133" lon="1.43349">
        <ele>237.1</ele>
        <time>2023-05-17T13:10:35Z</time>
      </trkpt>
      <trkpt lat="44.58167" lon="1.43347">
        <ele>235.66</ele>
        <time>2023-05-17T13:11:02Z</time>
      </trkpt>
      <trkpt lat="44.58189" lon="1.43354">
        <ele>235.18</ele>
        <time>2023-05-17T13:11:19Z</time>
      </trkpt>
      <trkpt lat="44.58199" lon="1.43349">
        <ele>234.22</ele>
        <time>2023-05-17T13:11:29Z</time>
      </trkpt>
    </trkseg>
  </trk>
</gpx>